
Distance (Route):
Temperature : -39.4°C
Humidity : 10.0%
Pressure : 254.1hPa| Receiver | Frames | First received | Last received |
|---|---|---|---|
| PU1XMG-16 | 569 | 2026-09-04 11:43:43 | 2026-09-04 13:19:45 |
| Receiver | Date | Latitude | Longitude | Direction | Speed | Altitude | Climb | Temperature | Humidity | Pressure | Voltage | Killtimer | Uptime | BKT | XDATA |
|---|---|---|---|---|---|---|---|---|---|---|---|---|---|---|---|
| PU1XMG-16 | 2026-09-04 13:19:45 | -22.54592 | -41.98956 | 77° | 146km/h | 10821m | -5.2m/s | -39.4°C | 10.0% | 254.1hPa | 0V | 00:00:00 | 00:00:00 | 00:00:00 | |
| PU1XMG-16 | 2026-09-04 13:15:24 | -22.56937 | -42.08848 | 80° | 144km/h | 12156m | -5.4m/s | -50.0°C | 7.5% | 208.1hPa | 0V | 00:00:00 | 00:00:00 | 00:00:00 | |
| PU1XMG-16 | 2026-09-04 13:15:09 | -22.57031 | -42.09387 | 79° | 141km/h | 12231m | -6.0m/s | -50.7°C | 7.8% | 205.8hPa | 0V | 00:00:00 | 00:00:00 | 00:00:00 | |
| PU1XMG-16 | 2026-09-04 13:14:55 | -22.57134 | -42.09955 | 81° | 141km/h | 12314m | -5.5m/s | -51.4°C | 8.2% | 203.2hPa | 0V | 00:00:00 | 00:00:00 | 00:00:00 | |
| PU1XMG-16 | 2026-09-04 13:14:43 | -22.57198 | -42.10377 | 82° | 142km/h | 12373m | -5.5m/s | -51.7°C | 9.0% | 201.3hPa | 0V | 08:06:00 | 00:00:00 | 00:00:00 | |
| PU1XMG-16 | 2026-09-04 13:14:36 | -22.57239 | -42.10648 | 82° | 144km/h | 12411m | -5.5m/s | -51.9°C | 9.7% | 200.1hPa | 0V | 08:06:00 | 00:00:00 | 00:00:00 | |
| PU1XMG-16 | 2026-09-04 13:14:29 | -22.57277 | -42.10923 | 83° | 146km/h | 12449m | -6.0m/s | -52.3°C | 10.0% | 198.9hPa | 0V | 08:06:00 | 00:00:00 | 00:00:00 | |
| PU1XMG-16 | 2026-09-04 13:14:23 | -22.57307 | -42.11155 | 83° | 141km/h | 12482m | -6.0m/s | -52.6°C | 10.3% | 198.0hPa | 0V | 08:06:00 | 00:00:00 | 00:00:00 | |
| PU1XMG-16 | 2026-09-04 13:14:18 | -22.57331 | -42.11347 | 83° | 142km/h | 12511m | -5.7m/s | -52.9°C | 10.6% | 197.1hPa | 0V | 08:06:00 | 00:00:00 | 00:00:00 | |
| PU1XMG-16 | 2026-09-04 13:14:12 | -22.57358 | -42.11582 | 84° | 146km/h | 12543m | -5.8m/s | -53.1°C | 10.8% | 196.0hPa | 0V | 08:06:00 | 00:00:00 | 00:00:00 | |
| PU1XMG-16 | 2026-09-04 13:14:07 | -22.57382 | -42.11780 | 83° | 144km/h | 12571m | -5.7m/s | -53.4°C | 11.0% | 195.3hPa | 0V | 08:06:00 | 00:00:00 | 00:00:00 | |
| PU1XMG-16 | 2026-09-04 13:14:01 | -22.57414 | -42.12013 | 82° | 144km/h | 12605m | -6.1m/s | -53.7°C | 11.2% | 194.3hPa | 0V | 08:06:00 | 00:00:00 | 00:00:00 | |
| PU1XMG-16 | 2026-09-04 13:13:57 | -22.57440 | -42.12208 | 83° | 144km/h | 12633m | -5.7m/s | -54.0°C | 11.2% | 193.4hPa | 0V | 00:00:00 | 00:00:00 | 00:00:00 | |
| PU1XMG-16 | 2026-09-04 13:13:50 | -22.57468 | -42.12444 | 83° | 146km/h | 12667m | -6.1m/s | -54.3°C | 11.5% | 192.4hPa | 0V | 00:00:00 | 00:00:00 | 00:00:00 | |
| PU1XMG-16 | 2026-09-04 13:13:45 | -22.57491 | -42.12642 | 84° | 146km/h | 12695m | -5.6m/s | -54.6°C | 11.4% | 191.5hPa | 0V | 00:00:00 | 00:00:00 | 00:00:00 | |
| PU1XMG-16 | 2026-09-04 13:13:40 | -22.57510 | -42.12839 | 86° | 144km/h | 12723m | -5.4m/s | -54.8°C | 11.2% | 190.7hPa | 0V | 00:00:00 | 00:00:00 | 00:00:00 | |
| PU1XMG-16 | 2026-09-04 13:13:34 | -22.57528 | -42.13074 | 86° | 144km/h | 12756m | -5.8m/s | -55.0°C | 11.2% | 189.7hPa | 0V | 00:00:00 | 00:00:00 | 00:00:00 | |
| PU1XMG-16 | 2026-09-04 13:13:29 | -22.57542 | -42.13271 | 86° | 144km/h | 12784m | -6.3m/s | -55.1°C | 11.3% | 188.9hPa | 0V | 00:00:00 | 00:00:00 | 00:00:00 | |
| PU1XMG-16 | 2026-09-04 13:13:23 | -22.57562 | -42.13507 | 86° | 146km/h | 12820m | -5.6m/s | -55.4°C | 11.5% | 187.9hPa | 0V | 00:00:00 | 00:00:00 | 00:00:00 | |
| PU1XMG-16 | 2026-09-04 13:13:13 | -22.57597 | -42.13948 | 85° | 146km/h | 12882m | -5.9m/s | -55.9°C | 11.9% | 186.1hPa | 0V | 00:00:00 | 00:00:00 | 00:00:00 | |
| PU1XMG-16 | 2026-09-04 13:12:31 | -22.57784 | -42.15628 | 83° | 150km/h | 13120m | -5.6m/s | -57.6°C | 13.2% | 179.2hPa | 0V | 00:00:00 | 00:00:00 | 00:00:00 | |
| PU1XMG-16 | 2026-09-04 13:12:22 | -22.57836 | -42.15997 | 82° | 150km/h | 13169m | -5.8m/s | -57.9°C | 14.0% | 177.8hPa | 0V | 00:00:00 | 00:00:00 | 00:00:00 | |
| PU1XMG-16 | 2026-09-04 13:12:15 | -22.57872 | -42.16238 | 82° | 148km/h | 13203m | -6.0m/s | -58.2°C | 14.2% | 176.8hPa | 0V | 08:09:00 | 00:00:00 | 00:00:00 | |
| PU1XMG-16 | 2026-09-04 13:12:10 | -22.57901 | -42.16435 | 82° | 146km/h | 13231m | -6.1m/s | -58.5°C | 14.4% | 176.1hPa | 0V | 08:09:00 | 00:00:00 | 00:00:00 | |
| PU1XMG-16 | 2026-09-04 13:12:04 | -22.57934 | -42.16673 | 83° | 148km/h | 13266m | -5.7m/s | -58.8°C | 14.4% | 175.1hPa | 0V | 08:09:00 | 00:00:00 | 00:00:00 | |
| PU1XMG-16 | 2026-09-04 13:11:59 | -22.57961 | -42.16915 | 84° | 148km/h | 13299m | -5.3m/s | -59.1°C | 14.3% | 174.1hPa | 0V | 08:09:00 | 00:00:00 | 00:00:00 | |
| PU1XMG-16 | 2026-09-04 13:11:53 | -22.57987 | -42.17116 | 82° | 148km/h | 13327m | -5.9m/s | -59.3°C | 14.2% | 173.4hPa | 0V | 08:09:00 | 00:00:00 | 00:00:00 | |
| PU1XMG-16 | 2026-09-04 13:11:46 | -22.58038 | -42.17432 | 81° | 144km/h | 13373m | -6.2m/s | -59.4°C | 13.5% | 172.1hPa | 0V | 08:09:00 | 00:00:00 | 00:00:00 | |
| PU1XMG-16 | 2026-09-04 13:11:39 | -22.58083 | -42.17705 | 81° | 146km/h | 13414m | -5.8m/s | -59.6°C | 13.3% | 171.0hPa | 0V | 08:09:00 | 00:00:00 | 00:00:00 | |
| PU1XMG-16 | 2026-09-04 13:11:33 | -22.58117 | -42.17902 | 80° | 146km/h | 13443m | -6.1m/s | -59.7°C | 13.0% | 170.2hPa | 0V | 08:09:00 | 00:00:00 | 00:00:00 | |
| PU1XMG-16 | 2026-09-04 13:11:28 | -22.58153 | -42.18098 | 79° | 146km/h | 13472m | -5.9m/s | -59.7°C | 12.8% | 169.5hPa | 0V | 08:09:00 | 00:00:00 | 00:00:00 | |
| PU1XMG-16 | 2026-09-04 13:11:23 | -22.58191 | -42.18292 | 80° | 144km/h | 13500m | -5.9m/s | -59.8°C | 12.6% | 168.7hPa | 0V | 08:10:00 | 00:00:00 | 00:00:00 | |
| PU1XMG-16 | 2026-09-04 13:11:18 | -22.58229 | -42.18524 | 82° | 144km/h | 13535m | -6.1m/s | -60.0°C | 12.5% | 167.7hPa | 0V | 08:10:00 | 00:00:00 | 00:00:00 | |
| PU1XMG-16 | 2026-09-04 13:11:12 | -22.58259 | -42.18721 | 81° | 148km/h | 13565m | -6.2m/s | -60.2°C | 12.7% | 167.0hPa | 0V | 08:10:00 | 00:00:00 | 00:00:00 | |
| PU1XMG-16 | 2026-09-04 13:11:08 | -22.58294 | -42.18923 | 80° | 151km/h | 13594m | -6.0m/s | -60.4°C | 12.6% | 166.2hPa | 0V | 08:10:00 | 00:00:00 | 00:00:00 | |
| PU1XMG-16 | 2026-09-04 13:11:02 | -22.58337 | -42.19162 | 81° | 146km/h | 13630m | -5.8m/s | -60.7°C | 12.9% | 165.2hPa | 0V | 08:10:00 | 00:00:00 | 00:00:00 | |
| PU1XMG-16 | 2026-09-04 13:10:56 | -22.58373 | -42.19397 | 82° | 148km/h | 13665m | -6.0m/s | -60.9°C | 13.0% | 164.3hPa | 0V | 08:10:00 | 00:00:00 | 00:00:00 | |
| PU1XMG-16 | 2026-09-04 13:10:49 | -22.58408 | -42.19642 | 82° | 153km/h | 13700m | -5.7m/s | -61.2°C | 13.3% | 163.4hPa | 0V | 08:10:00 | 00:00:00 | 00:00:00 | |
| PU1XMG-16 | 2026-09-04 13:10:43 | -22.58449 | -42.19889 | 79° | 151km/h | 13735m | -6.3m/s | -61.5°C | 13.7% | 162.5hPa | 0V | 08:10:00 | 00:00:00 | 00:00:00 | |
| PU1XMG-16 | 2026-09-04 13:10:37 | -22.58493 | -42.20127 | 80° | 146km/h | 13769m | -6.1m/s | -61.8°C | 13.9% | 161.6hPa | 0V | 08:10:00 | 00:00:00 | 00:00:00 | |
| PU1XMG-16 | 2026-09-04 13:10:32 | -22.58527 | -42.20325 | 80° | 151km/h | 13799m | -6.2m/s | -62.1°C | 14.3% | 160.8hPa | 0V | 00:00:00 | 00:00:00 | 00:00:00 | |
| PU1XMG-16 | 2026-09-04 13:10:27 | -22.58566 | -42.20532 | 79° | 157km/h | 13828m | -5.7m/s | -62.3°C | 14.5% | 160.0hPa | 0V | 00:00:00 | 00:00:00 | 00:00:00 | |
| PU1XMG-16 | 2026-09-04 13:10:21 | -22.58617 | -42.20779 | 78° | 151km/h | 13863m | -6.2m/s | -62.6°C | 15.0% | 159.1hPa | 0V | 00:00:00 | 00:00:00 | 00:00:00 | |
| PU1XMG-16 | 2026-09-04 13:10:16 | -22.58661 | -42.20977 | 77° | 150km/h | 13893m | -6.1m/s | -62.8°C | 15.4% | 158.3hPa | 0V | 00:00:00 | 00:00:00 | 00:00:00 | |
| PU1XMG-16 | 2026-09-04 13:10:11 | -22.58705 | -42.21180 | 78° | 155km/h | 13922m | -6.1m/s | -63.0°C | 15.7% | 157.6hPa | 0V | 00:00:00 | 00:00:00 | 00:00:00 | |
| PU1XMG-16 | 2026-09-04 13:10:05 | -22.58758 | -42.21428 | 77° | 153km/h | 13958m | -6.2m/s | -63.3°C | 16.0% | 156.7hPa | 0V | 00:00:00 | 00:00:00 | 00:00:00 | |
| PU1XMG-16 | 2026-09-04 13:10:00 | -22.58814 | -42.21667 | 77° | 151km/h | 13994m | -6.2m/s | -63.7°C | 16.2% | 155.8hPa | 0V | 00:00:00 | 00:00:00 | 00:00:00 | |
| PU1XMG-16 | 2026-09-04 13:09:54 | -22.58859 | -42.21870 | 77° | 153km/h | 14024m | -6.3m/s | -63.9°C | 16.4% | 155.1hPa | 0V | 00:00:00 | 00:00:00 | 00:00:00 | |
| PU1XMG-16 | 2026-09-04 13:09:48 | -22.58915 | -42.22119 | 76° | 155km/h | 14061m | -6.3m/s | -64.2°C | 16.4% | 154.1hPa | 0V | 00:00:00 | 00:00:00 | 00:00:00 | |
| PU1XMG-16 | 2026-09-04 13:09:42 | -22.58978 | -42.22363 | 75° | 151km/h | 14097m | -6.1m/s | -64.5°C | 16.5% | 153.2hPa | 0V | 00:00:00 | 00:00:00 | 00:00:00 | |
| PU1XMG-16 | 2026-09-04 13:09:38 | -22.59032 | -42.22561 | 75° | 151km/h | 14127m | -6.1m/s | -64.8°C | 16.6% | 152.5hPa | 0V | 00:00:00 | 00:00:00 | 00:00:00 | |
| PU1XMG-16 | 2026-09-04 13:09:32 | -22.59097 | -42.22803 | 74° | 157km/h | 14162m | -6.3m/s | -65.1°C | 16.5% | 151.6hPa | 0V | 00:00:00 | 00:00:00 | 00:00:00 | |
| PU1XMG-16 | 2026-09-04 13:09:15 | -22.59290 | -42.23439 | 72° | 151km/h | 14257m | -6.1m/s | -65.7°C | 15.7% | 149.2hPa | 0V | 00:00:00 | 00:00:00 | 00:00:00 | |
| PU1XMG-16 | 2026-09-04 13:09:09 | -22.59371 | -42.23679 | 70° | 159km/h | 14292m | -6.5m/s | -65.9°C | 15.1% | 148.3hPa | 0V | 00:00:00 | 00:00:00 | 00:00:00 | |
| PU1XMG-16 | 2026-09-04 13:09:04 | -22.59460 | -42.23923 | 69° | 157km/h | 14328m | -6.1m/s | -66.1°C | 14.8% | 147.5hPa | 0V | 00:00:00 | 00:00:00 | 00:00:00 | |
| PU1XMG-16 | 2026-09-04 13:08:59 | -22.59536 | -42.24117 | 67° | 153km/h | 14358m | -6.3m/s | -66.2°C | 14.6% | 146.8hPa | 0V | 00:00:00 | 00:00:00 | 00:00:00 | |
| PU1XMG-16 | 2026-09-04 13:08:52 | -22.59631 | -42.24348 | 66° | 155km/h | 14395m | -6.2m/s | -66.5°C | 14.4% | 145.9hPa | 0V | 00:00:00 | 00:00:00 | 00:00:00 | |
| PU1XMG-16 | 2026-09-04 13:08:46 | -22.59732 | -42.24582 | 65° | 157km/h | 14431m | -6.4m/s | -66.6°C | 13.8% | 145.0hPa | 0V | 00:00:00 | 00:00:00 | 00:00:00 | |
| PU1XMG-16 | 2026-09-04 13:08:41 | -22.59839 | -42.24807 | 64° | 151km/h | 14469m | -6.5m/s | -66.6°C | 13.2% | 144.1hPa | 0V | 00:00:00 | 00:00:00 | 00:00:00 | |
| PU1XMG-16 | 2026-09-04 13:08:36 | -22.59925 | -42.24988 | 65° | 148km/h | 14499m | -5.9m/s | -66.7°C | 13.0% | 143.4hPa | 0V | 00:00:00 | 00:00:00 | 00:00:00 | |
| PU1XMG-16 | 2026-09-04 13:08:30 | -22.60008 | -42.25174 | 65° | 151km/h | 14529m | -6.3m/s | -66.8°C | 12.8% | 142.7hPa | 0V | 00:00:00 | 00:00:00 | 00:00:00 | |
| PU1XMG-16 | 2026-09-04 13:08:25 | -22.60117 | -42.25396 | 62° | 151km/h | 14566m | -6.1m/s | -66.9°C | 12.5% | 141.8hPa | 0V | 00:00:00 | 00:00:00 | 00:00:00 | |
| PU1XMG-16 | 2026-09-04 13:02:56 | -22.62536 | -42.34496 | 111° | 100km/h | 16851m | -7.6m/s | -72.5°C | 7.6% | 96.7hPa | 0V | 00:00:00 | 00:00:00 | 00:00:00 | |
| PU1XMG-16 | 2026-09-04 13:02:51 | -22.62494 | -42.34627 | 109° | 100km/h | 16890m | -7.9m/s | -72.8°C | 7.6% | 96.0hPa | 0V | 00:00:00 | 00:00:00 | 00:00:00 | |
| PU1XMG-16 | 2026-09-04 13:02:46 | -22.62456 | -42.34752 | 110° | 93km/h | 16929m | -8.1m/s | -73.0°C | 7.7% | 95.4hPa | 0V | 00:00:00 | 00:00:00 | 00:00:00 | |
| PU1XMG-16 | 2026-09-04 13:02:40 | -22.62411 | -42.34895 | 109° | 93km/h | 16977m | -8.5m/s | -73.2°C | 7.7% | 94.6hPa | 0V | 00:00:00 | 00:00:00 | 00:00:00 | |
| PU1XMG-16 | 2026-09-04 13:02:35 | -22.62378 | -42.35015 | 106° | 89km/h | 17017m | -8.4m/s | -73.3°C | 7.6% | 94.0hPa | 0V | 00:00:00 | 00:00:00 | 00:00:00 | |
| PU1XMG-16 | 2026-09-04 13:02:29 | -22.62351 | -42.35162 | 99° | 91km/h | 17065m | -8.0m/s | -73.2°C | 7.6% | 93.3hPa | 0V | 00:00:00 | 00:00:00 | 00:00:00 | |
| PU1XMG-16 | 2026-09-04 13:01:59 | -22.62256 | -42.35764 | 103° | 66km/h | 17303m | -8.5m/s | -70.7°C | 5.7% | 89.5hPa | 0V | 08:19:00 | 00:00:00 | 00:00:00 | |
| PU1XMG-16 | 2026-09-04 13:01:50 | -22.62228 | -42.35918 | 100° | 75km/h | 17371m | -8.5m/s | -70.5°C | 5.2% | 88.5hPa | 0V | 08:19:00 | 00:00:00 | 00:00:00 | |
| PU1XMG-16 | 2026-09-04 13:01:45 | -22.62213 | -42.36049 | 97° | 84km/h | 17420m | -8.2m/s | -70.1°C | 5.4% | 87.8hPa | 0V | 08:19:00 | 00:00:00 | 00:00:00 | |
| PU1XMG-16 | 2026-09-04 13:01:39 | -22.62206 | -42.36182 | 90° | 77km/h | 17471m | -7.8m/s | -70.1°C | 5.4% | 87.0hPa | 0V | 08:19:00 | 00:00:00 | 00:00:00 | |
| PU1XMG-16 | 2026-09-04 13:01:33 | -22.62210 | -42.36281 | 88° | 69km/h | 17511m | -7.8m/s | -69.7°C | 5.0% | 86.5hPa | 0V | 08:19:00 | 00:00:00 | 00:00:00 | |
| PU1XMG-16 | 2026-09-04 13:01:28 | -22.62214 | -42.36372 | 87° | 64km/h | 17551m | -8.4m/s | -69.5°C | 4.8% | 85.9hPa | 0V | 08:19:00 | 00:00:00 | 00:00:00 | |
| PU1XMG-16 | 2026-09-04 13:01:23 | -22.62222 | -42.36456 | 84° | 58km/h | 17593m | -8.1m/s | -68.4°C | 4.2% | 85.3hPa | 0V | 08:19:00 | 00:00:00 | 00:00:00 | |
| PU1XMG-16 | 2026-09-04 13:01:18 | -22.62232 | -42.36544 | 82° | 51km/h | 17643m | -8.3m/s | -68.5°C | 4.2% | 84.6hPa | 0V | 08:19:00 | 00:00:00 | 00:00:00 | |
| PU1XMG-16 | 2026-09-04 13:01:11 | -22.62249 | -42.36626 | 75° | 55km/h | 17694m | -8.3m/s | -68.6°C | 4.1% | 83.8hPa | 0V | 08:20:00 | 00:00:00 | 00:00:00 | |
| PU1XMG-16 | 2026-09-04 13:01:06 | -22.62274 | -42.36716 | 74° | 57km/h | 17745m | -8.6m/s | -68.9°C | 4.1% | 83.2hPa | 0V | 08:20:00 | 00:00:00 | 00:00:00 | |
| PU1XMG-16 | 2026-09-04 13:00:26 | -22.62450 | -42.37343 | 62° | 58km/h | 18081m | -8.7m/s | -67.5°C | 3.4% | 78.6hPa | 0V | 08:20:00 | 00:00:00 | 00:00:00 | |
| PU1XMG-16 | 2026-09-04 13:00:20 | -22.62490 | -42.37425 | 64° | 58km/h | 18135m | -9.0m/s | -67.1°C | 3.4% | 77.9hPa | 0V | 08:21:00 | 00:00:00 | 00:00:00 | |
| PU1XMG-16 | 2026-09-04 13:00:14 | -22.62529 | -42.37516 | 70° | 60km/h | 18189m | -9.1m/s | -66.6°C | 3.2% | 77.2hPa | 0V | 08:21:00 | 00:00:00 | 00:00:00 | |
| PU1XMG-16 | 2026-09-04 13:00:09 | -22.62552 | -42.37609 | 83° | 58km/h | 18242m | -9.1m/s | -66.5°C | 3.2% | 76.5hPa | 0V | 08:21:00 | 00:00:00 | 00:00:00 | |
| PU1XMG-16 | 2026-09-04 12:59:58 | -22.62556 | -42.37747 | 89° | 51km/h | 18333m | -9.3m/s | -65.0°C | 2.9% | 75.4hPa | 0V | 08:21:00 | 00:00:00 | 00:00:00 | |
| PU1XMG-16 | 2026-09-04 12:59:53 | -22.62553 | -42.37824 | 99° | 58km/h | 18379m | -9.8m/s | -64.2°C | 2.9% | 74.8hPa | 0V | 08:21:00 | 00:00:00 | 00:00:00 | |
| PU1XMG-16 | 2026-09-04 12:59:48 | -22.62537 | -42.37897 | 97° | 35km/h | 18436m | -9.4m/s | -63.0°C | 2.5% | 74.1hPa | 0V | 08:21:00 | 00:00:00 | 00:00:00 | |
| PU1XMG-16 | 2026-09-04 12:59:42 | -22.62547 | -42.37947 | 71° | 46km/h | 18483m | -9.8m/s | -62.7°C | 2.5% | 73.5hPa | 0V | 08:21:00 | 00:00:00 | 00:00:00 | |
| PU1XMG-16 | 2026-09-04 12:59:37 | -22.62562 | -42.38017 | 87° | 57km/h | 18530m | -9.9m/s | -62.5°C | 2.4% | 73.0hPa | 0V | 08:21:00 | 00:00:00 | 00:00:00 | |
| PU1XMG-16 | 2026-09-04 12:59:32 | -22.62555 | -42.38100 | 100° | 42km/h | 18587m | -9.7m/s | -62.3°C | 2.2% | 72.3hPa | 0V | 00:00:00 | 00:00:00 | 00:00:00 | |
| PU1XMG-16 | 2026-09-04 12:58:48 | -22.62701 | -42.38536 | 68° | 42km/h | 19020m | -10.1m/s | -61.1°C | 2.1% | 67.5hPa | 0V | 00:00:00 | 00:00:00 | 00:00:00 | |
| PU1XMG-16 | 2026-09-04 12:58:42 | -22.62705 | -42.38584 | 103° | 27km/h | 19070m | -10.6m/s | -61.3°C | 2.2% | 66.9hPa | 0V | 00:00:00 | 00:00:00 | 00:00:00 | |
| PU1XMG-16 | 2026-09-04 12:58:36 | -22.62708 | -42.38609 | 43° | 20km/h | 19130m | -9.5m/s | -61.2°C | 2.3% | 66.3hPa | 0V | 00:00:00 | 00:00:00 | 00:00:00 | |
| PU1XMG-16 | 2026-09-04 12:58:30 | -22.62725 | -42.38651 | 94° | 31km/h | 19190m | -10.2m/s | -61.0°C | 2.2% | 65.7hPa | 0V | 00:00:00 | 00:00:00 | 00:00:00 | |
| PU1XMG-16 | 2026-09-04 12:58:24 | -22.62712 | -42.38679 | 162° | 7km/h | 19250m | -10.6m/s | -60.7°C | 2.0% | 65.0hPa | 0V | 00:00:00 | 00:00:00 | 00:00:00 | |
| PU1XMG-16 | 2026-09-04 12:58:19 | -22.62719 | -42.38682 | 33° | 18km/h | 19302m | -10.2m/s | -60.9°C | 2.1% | 64.5hPa | 0V | 00:00:00 | 00:00:00 | 00:00:00 | |
| PU1XMG-16 | 2026-09-04 12:56:08 | -22.62283 | -42.39066 | 201° | 20km/h | 20695m | -12.1m/s | -62.2°C | 2.2% | 51.4hPa | 0V | 08:24:00 | 00:00:00 | 00:00:00 | |
| PU1XMG-16 | 2026-09-04 12:56:02 | -22.62277 | -42.39058 | 58° | 11km/h | 20763m | -11.1m/s | -61.5°C | 1.9% | 50.9hPa | 0V | 00:00:00 | 00:00:00 | 00:00:00 | |
| PU1XMG-16 | 2026-09-04 12:55:57 | -22.62268 | -42.39078 | 173° | 22km/h | 20832m | -11.3m/s | -61.4°C | 2.0% | 50.3hPa | 0V | 00:00:00 | 00:00:00 | 00:00:00 | |
| PU1XMG-16 | 2026-09-04 12:55:50 | -22.62249 | -42.39061 | 280° | 13km/h | 20900m | -11.8m/s | -61.5°C | 1.9% | 49.8hPa | 0V | 00:00:00 | 00:00:00 | 00:00:00 | |
| PU1XMG-16 | 2026-09-04 12:55:45 | -22.62254 | -42.39061 | 135° | 13km/h | 20968m | -11.9m/s | -61.7°C | 2.0% | 49.2hPa | 0V | 00:00:00 | 00:00:00 | 00:00:00 | |
| PU1XMG-16 | 2026-09-04 12:55:39 | -22.62230 | -42.39063 | 209° | 24km/h | 21025m | -12.4m/s | -62.1°C | 2.1% | 48.8hPa | 0V | 00:00:00 | 00:00:00 | 00:00:00 | |
| PU1XMG-16 | 2026-09-04 12:55:33 | -22.62220 | -42.39049 | 16° | 9km/h | 21096m | -11.1m/s | -62.3°C | 2.3% | 48.2hPa | 0V | 00:00:00 | 00:00:00 | 00:00:00 | |
| PU1XMG-16 | 2026-09-04 12:55:28 | -22.62218 | -42.39072 | 145° | 18km/h | 21165m | -11.8m/s | -61.9°C | 2.3% | 47.7hPa | 0V | 00:00:00 | 00:00:00 | 00:00:00 | |
| PU1XMG-16 | 2026-09-04 12:55:21 | -22.62202 | -42.39053 | 288° | 20km/h | 21248m | -11.4m/s | -60.2°C | 1.9% | 47.0hPa | 0V | 00:00:00 | 00:00:00 | 00:00:00 | |
| PU1XMG-16 | 2026-09-04 12:52:40 | -22.62052 | -42.38783 | 335° | 13km/h | 23310m | -14.2m/s | -57.4°C | 1.7% | 33.9hPa | 0V | 00:00:00 | 00:00:00 | 00:00:00 | |
| PU1XMG-16 | 2026-09-04 12:52:35 | -22.62075 | -42.38789 | 25° | 15km/h | 23394m | -14.0m/s | -57.2°C | 1.6% | 33.4hPa | 0V | 00:00:00 | 00:00:00 | 00:00:00 | |
| PU1XMG-16 | 2026-09-04 12:52:28 | -22.62095 | -42.38783 | 319° | 27km/h | 23476m | -14.4m/s | -57.1°C | 1.5% | 33.0hPa | 0V | 00:00:00 | 00:00:00 | 00:00:00 | |
| PU1XMG-16 | 2026-09-04 12:52:22 | -22.62141 | -42.38763 | 360° | 33km/h | 23562m | -14.6m/s | -56.9°C | 1.6% | 32.5hPa | 0V | 00:00:00 | 00:00:00 | 00:00:00 | |
| PU1XMG-16 | 2026-09-04 12:52:17 | -22.62173 | -42.38756 | 332° | 29km/h | 23632m | -14.2m/s | -57.2°C | 1.6% | 32.2hPa | 0V | 00:00:00 | 00:00:00 | 00:00:00 | |
| PU1XMG-16 | 2026-09-04 12:52:10 | -22.62231 | -42.38727 | 345° | 31km/h | 23731m | -14.4m/s | -57.7°C | 1.7% | 31.7hPa | 0V | 00:00:00 | 00:00:00 | 00:00:00 | |
| PU1XMG-16 | 2026-09-04 12:51:59 | -22.62285 | -42.38684 | 346° | 18km/h | 23903m | -14.3m/s | -57.4°C | 1.8% | 30.8hPa | 0V | 00:00:00 | 00:00:00 | 00:00:00 | |
| PU1XMG-16 | 2026-09-04 12:51:52 | -22.62292 | -42.38684 | 282° | 4km/h | 23989m | -14.6m/s | -56.8°C | 1.7% | 30.4hPa | 0V | 00:00:00 | 00:00:00 | 00:00:00 | |
| PU1XMG-16 | 2026-09-04 12:51:47 | -22.62306 | -42.38680 | 10° | 16km/h | 24076m | -15.1m/s | -55.5°C | 1.6% | 30.0hPa | 0V | 00:00:00 | 00:00:00 | 00:00:00 | |
| PU1XMG-16 | 2026-09-04 12:51:04 | -22.62364 | -42.38594 | 21° | 7km/h | 24695m | -14.5m/s | -54.7°C | 1.4% | 27.2hPa | 0V | 00:00:00 | 00:00:00 | 00:00:00 | |
| PU1XMG-16 | 2026-09-04 12:50:49 | -22.62388 | -42.38562 | 86° | 5km/h | 24905m | -18.1m/s | -55.3°C | 1.5% | 26.3hPa | 0V | 00:00:00 | 00:00:00 | 00:00:00 | |
| PU1XMG-16 | 2026-09-04 12:50:16 | -22.62371 | -42.38551 | 154° | 20km/h | 25379m | -15.3m/s | -54.6°C | 1.4% | 24.4hPa | 0V | 00:00:00 | 00:00:00 | 00:00:00 | |
| PU1XMG-16 | 2026-09-04 12:50:07 | -22.62353 | -42.38575 | 128° | 2km/h | 25464m | 5.6m/s | -53.7°C | 1.3% | 24.1hPa | 0V | 00:00:00 | 00:00:00 | 00:00:00 | |
| PU1XMG-16 | 2026-09-04 12:49:59 | -22.62348 | -42.38580 | 244° | 4km/h | 25415m | 6.0m/s | -54.3°C | 1.3% | 24.2hPa | 0V | 00:00:00 | 00:00:00 | 00:00:00 | |
| PU1XMG-16 | 2026-09-04 12:49:53 | -22.62350 | -42.38575 | 244° | 4km/h | 25369m | 7.5m/s | -55.1°C | 1.4% | 24.4hPa | 0V | 00:00:00 | 00:00:00 | 00:00:00 | |
| PU1XMG-16 | 2026-09-04 12:49:48 | -22.62339 | -42.38568 | 191° | 16km/h | 25337m | 8.8m/s | -55.2°C | 1.4% | 24.5hPa | 0V | 00:00:00 | 00:00:00 | 00:00:00 | |
| PU1XMG-16 | 2026-09-04 12:49:41 | -22.62319 | -42.38562 | 195° | 5km/h | 25299m | 5.8m/s | -55.2°C | 1.5% | 24.7hPa | 0V | 00:00:00 | 00:00:00 | 00:00:00 | |
| PU1XMG-16 | 2026-09-04 12:49:36 | -22.62321 | -42.38552 | 296° | 2km/h | 25261m | 5.4m/s | -55.0°C | 1.4% | 24.8hPa | 0V | 00:00:00 | 00:00:00 | 00:00:00 | |
| PU1XMG-16 | 2026-09-04 12:49:28 | -22.62313 | -42.38551 | 129° | 9km/h | 25216m | 5.4m/s | -55.3°C | 1.5% | 25.0hPa | 0V | 00:00:00 | 00:00:00 | 00:00:00 | |
| PU1XMG-16 | 2026-09-04 12:49:20 | -22.62321 | -42.38562 | 277° | 4km/h | 25159m | 7.0m/s | -55.6°C | 1.5% | 25.2hPa | 0V | 00:00:00 | 00:00:00 | 00:00:00 | |
| PU1XMG-16 | 2026-09-04 12:49:11 | -22.62313 | -42.38542 | 293° | 9km/h | 25109m | 5.8m/s | -55.6°C | 1.5% | 25.4hPa | 0V | 00:00:00 | 00:00:00 | 00:00:00 | |
| PU1XMG-16 | 2026-09-04 12:49:05 | -22.62313 | -42.38528 | 186° | 5km/h | 25074m | 6.4m/s | -55.7°C | 1.6% | 25.6hPa | 0V | 00:00:00 | 00:00:00 | 00:00:00 | |
| PU1XMG-16 | 2026-09-04 12:48:59 | -22.62314 | -42.38525 | 228° | 2km/h | 25031m | 4.6m/s | -55.7°C | 1.5% | 25.8hPa | 0V | 00:00:00 | 00:00:00 | 00:00:00 | |
| PU1XMG-16 | 2026-09-04 12:48:52 | -22.62312 | -42.38517 | 257° | 5km/h | 24992m | 7.9m/s | -55.6°C | 1.5% | 25.9hPa | 0V | 00:00:00 | 00:00:00 | 00:00:00 | |
| PU1XMG-16 | 2026-09-04 12:47:39 | -22.62398 | -42.38360 | 303° | 22km/h | 24535m | 7.4m/s | -54.4°C | 1.4% | 27.8hPa | 0V | 00:00:00 | 00:00:00 | 00:00:00 | |
| PU1XMG-16 | 2026-09-04 12:47:30 | -22.62416 | -42.38328 | 323° | 11km/h | 24486m | 6.1m/s | -54.3°C | 1.4% | 28.1hPa | 0V | 00:00:00 | 00:00:00 | 00:00:00 | |
| PU1XMG-16 | 2026-09-04 12:47:24 | -22.62424 | -42.38312 | 285° | 20km/h | 24448m | 6.3m/s | -54.6°C | 1.4% | 28.2hPa | 0V | 00:00:00 | 00:00:00 | 00:00:00 | |
| PU1XMG-16 | 2026-09-04 12:47:19 | -22.62427 | -42.38285 | 291° | 7km/h | 24410m | 6.6m/s | -54.7°C | 1.4% | 28.4hPa | 0V | 00:00:00 | 00:00:00 | 00:00:00 | |
| PU1XMG-16 | 2026-09-04 12:47:13 | -22.62432 | -42.38284 | 335° | 9km/h | 24372m | 6.9m/s | -54.8°C | 1.4% | 28.6hPa | 0V | 00:00:00 | 00:00:00 | 00:00:00 | |
| PU1XMG-16 | 2026-09-04 12:47:08 | -22.62440 | -42.38272 | 302° | 13km/h | 24339m | 5.9m/s | -55.3°C | 1.5% | 28.7hPa | 0V | 00:00:00 | 00:00:00 | 00:00:00 | |
| PU1XMG-16 | 2026-09-04 12:47:02 | -22.62440 | -42.38269 | 36° | 5km/h | 24306m | 6.6m/s | -55.1°C | 1.5% | 28.9hPa | 0V | 00:00:00 | 00:00:00 | 00:00:00 | |
| PU1XMG-16 | 2026-09-04 12:46:56 | -22.62450 | -42.38272 | 329° | 11km/h | 24267m | 6.3m/s | -55.3°C | 1.4% | 29.0hPa | 0V | 00:00:00 | 00:00:00 | 00:00:00 | |
| PU1XMG-16 | 2026-09-04 12:46:47 | -22.62471 | -42.38256 | 7° | 15km/h | 24210m | 7.4m/s | -55.1°C | 1.5% | 29.3hPa | 0V | 00:00:00 | 00:00:00 | 00:00:00 | |
| PU1XMG-16 | 2026-09-04 12:46:41 | -22.62493 | -42.38251 | 319° | 11km/h | 24172m | 7.1m/s | -55.2°C | 1.5% | 29.5hPa | 0V | 00:00:00 | 00:00:00 | 00:00:00 | |
| PU1XMG-16 | 2026-09-04 12:46:35 | -22.62509 | -42.38245 | 17° | 11km/h | 24126m | 5.7m/s | -55.0°C | 1.4% | 29.7hPa | 0V | 00:00:00 | 00:00:00 | 00:00:00 | |
| PU1XMG-16 | 2026-09-04 12:45:55 | -22.62595 | -42.38241 | 328° | 15km/h | 23877m | 7.5m/s | -57.1°C | 1.6% | 30.9hPa | 0V | 00:00:00 | 00:00:00 | 00:00:00 | |
| PU1XMG-16 | 2026-09-04 12:45:49 | -22.62619 | -42.38223 | 315° | 16km/h | 23831m | 5.4m/s | -57.1°C | 1.6% | 31.1hPa | 0V | 00:00:00 | 00:00:00 | 00:00:00 | |
| PU1XMG-16 | 2026-09-04 12:45:30 | -22.62724 | -42.38156 | 324° | 35km/h | 23710m | 8.0m/s | -57.1°C | 1.7% | 31.7hPa | 0V | 00:00:00 | 00:00:00 | 00:00:00 | |
| PU1XMG-16 | 2026-09-04 12:45:20 | -22.62800 | -42.38122 | 338° | 33km/h | 23645m | 5.7m/s | -56.9°C | 1.6% | 32.1hPa | 0V | 00:00:00 | 00:00:00 | 00:00:00 | |
| PU1XMG-16 | 2026-09-04 12:45:14 | -22.62844 | -42.38103 | 343° | 27km/h | 23606m | 5.7m/s | -56.7°C | 1.6% | 32.3hPa | 0V | 00:00:00 | 00:00:00 | 00:00:00 | |
| PU1XMG-16 | 2026-09-04 12:44:51 | -22.63015 | -42.38046 | 348° | 24km/h | 23461m | 6.3m/s | -56.4°C | 1.5% | 33.0hPa | 0V | 00:00:00 | 00:00:00 | 00:00:00 | |
| PU1XMG-16 | 2026-09-04 12:44:46 | -22.63045 | -42.38032 | 347° | 26km/h | 23429m | 5.1m/s | -56.6°C | 1.6% | 33.2hPa | 0V | 00:00:00 | 00:00:00 | 00:00:00 | |
| PU1XMG-16 | 2026-09-04 12:44:31 | -22.63111 | -42.38025 | 3° | 11km/h | 23336m | 8.2m/s | -56.7°C | 1.6% | 33.7hPa | 0V | 00:00:00 | 00:00:00 | 00:00:00 | |
| PU1XMG-16 | 2026-09-04 12:43:31 | -22.63269 | -42.38068 | 348° | 18km/h | 22972m | 4.4m/s | -56.8°C | 1.5% | 35.7hPa | 0V | 00:00:00 | 00:00:00 | 00:00:00 | |
| PU1XMG-16 | 2026-09-04 12:42:41 | -22.63332 | -42.38063 | 336° | 9km/h | 22667m | 4.8m/s | -57.5°C | 1.6% | 37.5hPa | 0V | 00:00:00 | 00:00:00 | 00:00:00 | |
| PU1XMG-16 | 2026-09-04 12:42:33 | -22.63331 | -42.38048 | 265° | 11km/h | 22613m | 6.3m/s | -57.8°C | 1.6% | 37.8hPa | 0V | 00:00:00 | 00:00:00 | 00:00:00 | |
| PU1XMG-16 | 2026-09-04 12:42:21 | -22.63323 | -42.38012 | 270° | 11km/h | 22537m | 4.4m/s | -57.7°C | 1.6% | 38.2hPa | 0V | 00:00:00 | 00:00:00 | 00:00:00 | |
| PU1XMG-16 | 2026-09-04 12:41:36 | -22.63349 | -42.37956 | 184° | 7km/h | 22266m | 4.9m/s | -58.7°C | 1.6% | 39.9hPa | 0V | 00:00:00 | 00:00:00 | 00:00:00 | |
| PU1XMG-16 | 2026-09-04 12:41:30 | -22.63338 | -42.37958 | 183° | 5km/h | 22235m | 5.3m/s | -58.8°C | 1.7% | 40.1hPa | 0V | 00:00:00 | 00:00:00 | 00:00:00 | |
| PU1XMG-16 | 2026-09-04 12:41:24 | -22.63340 | -42.37962 | 21° | 9km/h | 22196m | 9.0m/s | -59.0°C | 1.7% | 40.3hPa | 0V | 00:00:00 | 00:00:00 | 00:00:00 | |
| PU1XMG-16 | 2026-09-04 12:41:19 | -22.63350 | -42.37965 | 36° | 9km/h | 22163m | 7.3m/s | -59.2°C | 1.7% | 40.6hPa | 0V | 00:00:00 | 00:00:00 | 00:00:00 | |
| PU1XMG-16 | 2026-09-04 12:41:04 | -22.63358 | -42.37976 | 105° | 5km/h | 22063m | 5.2m/s | -59.8°C | 1.8% | 41.2hPa | 0V | 00:00:00 | 00:00:00 | 00:00:00 | |
| PU1XMG-16 | 2026-09-04 12:40:58 | -22.63351 | -42.37980 | 138° | 9km/h | 22026m | 4.5m/s | -59.9°C | 1.8% | 41.5hPa | 0V | 00:00:00 | 00:00:00 | 00:00:00 | |
| PU1XMG-16 | 2026-09-04 12:40:14 | -22.63163 | -42.37907 | 224° | 29km/h | 21754m | 7.0m/s | -60.1°C | 1.8% | 43.3hPa | 0V | 00:00:00 | 00:00:00 | 00:00:00 | |
| PU1XMG-16 | 2026-09-04 12:40:08 | -22.63135 | -42.37878 | 219° | 27km/h | 21717m | 5.1m/s | -60.0°C | 1.9% | 43.6hPa | 0V | 00:00:00 | 00:00:00 | 00:00:00 | |
| PU1XMG-16 | 2026-09-04 12:40:02 | -22.63100 | -42.37850 | 230° | 35km/h | 21680m | 4.1m/s | -59.9°C | 1.9% | 43.8hPa | 0V | 00:00:00 | 00:00:00 | 00:00:00 | |
| PU1XMG-16 | 2026-09-04 12:39:55 | -22.63069 | -42.37815 | 221° | 24km/h | 21642m | 7.7m/s | -59.8°C | 1.8% | 44.1hPa | 0V | 00:00:00 | 00:00:00 | 00:00:00 | |
| PU1XMG-16 | 2026-09-04 12:39:50 | -22.63041 | -42.37784 | 232° | 29km/h | 21605m | 5.9m/s | -59.7°C | 1.8% | 44.4hPa | 0V | 00:00:00 | 00:00:00 | 00:00:00 | |
| PU1XMG-16 | 2026-09-04 12:39:43 | -22.63009 | -42.37732 | 233° | 29km/h | 21564m | 7.4m/s | -59.7°C | 1.8% | 44.7hPa | 0V | 00:00:00 | 00:00:00 | 00:00:00 | |
| PU1XMG-16 | 2026-09-04 12:39:37 | -22.62991 | -42.37703 | 249° | 24km/h | 21531m | 7.3m/s | -59.9°C | 1.8% | 44.9hPa | 0V | 00:00:00 | 00:00:00 | 00:00:00 | |
| PU1XMG-16 | 2026-09-04 12:39:31 | -22.62980 | -42.37660 | 257° | 27km/h | 21491m | 6.6m/s | -59.9°C | 1.9% | 45.2hPa | 0V | 00:00:00 | 00:00:00 | 00:00:00 | |
| PU1XMG-16 | 2026-09-04 12:39:25 | -22.62976 | -42.37632 | 265° | 11km/h | 21450m | 4.2m/s | -59.6°C | 1.8% | 45.5hPa | 0V | 00:00:00 | 00:00:00 | 00:00:00 | |
| PU1XMG-16 | 2026-09-04 12:39:18 | -22.62979 | -42.37598 | 281° | 20km/h | 21409m | 6.4m/s | -59.6°C | 1.8% | 45.8hPa | 0V | 00:00:00 | 00:00:00 | 00:00:00 | |
| PU1XMG-16 | 2026-09-04 12:39:13 | -22.62980 | -42.37580 | 272° | 9km/h | 21379m | 8.2m/s | -59.3°C | 1.7% | 46.0hPa | 0V | 00:00:00 | 00:00:00 | 00:00:00 | |
| PU1XMG-16 | 2026-09-04 12:39:07 | -22.62979 | -42.37560 | 270° | 16km/h | 21344m | 7.1m/s | -59.6°C | 1.7% | 46.3hPa | 0V | 00:00:00 | 00:00:00 | 00:00:00 | |
| PU1XMG-16 | 2026-09-04 12:39:01 | -22.62980 | -42.37534 | 287° | 9km/h | 21309m | 5.5m/s | -59.9°C | 1.7% | 46.5hPa | 0V | 00:00:00 | 00:00:00 | 00:00:00 | |
| PU1XMG-16 | 2026-09-04 12:38:55 | -22.62984 | -42.37527 | 333° | 5km/h | 21280m | 5.7m/s | -60.3°C | 1.7% | 46.7hPa | 0V | 00:00:00 | 00:00:00 | 00:00:00 | |
| PU1XMG-16 | 2026-09-04 12:38:51 | -22.62988 | -42.37518 | 278° | 7km/h | 21252m | 4.6m/s | -60.6°C | 1.8% | 47.0hPa | 0V | 00:00:00 | 00:00:00 | 00:00:00 | |
| PU1XMG-16 | 2026-09-04 12:38:45 | -22.62983 | -42.37510 | 200° | 4km/h | 21216m | 6.9m/s | -61.5°C | 1.9% | 47.2hPa | 0V | 00:00:00 | 00:00:00 | 00:00:00 | |
| PU1XMG-16 | 2026-09-04 12:38:39 | -22.62984 | -42.37519 | 58° | 9km/h | 21182m | 6.9m/s | -61.9°C | 2.0% | 47.5hPa | 0V | 00:00:00 | 00:00:00 | 00:00:00 | |
| PU1XMG-16 | 2026-09-04 12:38:32 | -22.62988 | -42.37528 | 161° | 7km/h | 21142m | 7.6m/s | -62.1°C | 2.0% | 47.8hPa | 0V | 00:00:00 | 00:00:00 | 00:00:00 | |
| PU1XMG-16 | 2026-09-04 12:38:25 | -22.62964 | -42.37534 | 145° | 11km/h | 21101m | 4.1m/s | -62.4°C | 2.1% | 48.1hPa | 0V | 00:00:00 | 00:00:00 | 00:00:00 | |
| PU1XMG-16 | 2026-09-04 12:38:18 | -22.62953 | -42.37536 | 206° | 7km/h | 21067m | 6.3m/s | -62.2°C | 2.1% | 48.4hPa | 0V | 00:00:00 | 00:00:00 | 00:00:00 | |
| PU1XMG-16 | 2026-09-04 12:38:07 | -22.62933 | -42.37516 | 206° | 11km/h | 21003m | 6.1m/s | -61.8°C | 2.0% | 48.9hPa | 0V | 00:00:00 | 00:00:00 | 00:00:00 | |
| PU1XMG-16 | 2026-09-04 12:38:02 | -22.62919 | -42.37515 | 213° | 9km/h | 20967m | 7.1m/s | -61.4°C | 2.1% | 49.2hPa | 0V | 00:00:00 | 00:00:00 | 00:00:00 | |
| PU1XMG-16 | 2026-09-04 12:37:57 | -22.62912 | -42.37502 | 249° | 9km/h | 20937m | 7.4m/s | -61.3°C | 2.0% | 49.4hPa | 0V | 00:00:00 | 00:00:00 | 00:00:00 | |
| PU1XMG-16 | 2026-09-04 12:37:50 | -22.62902 | -42.37499 | 163° | 7km/h | 20901m | 5.1m/s | -61.3°C | 2.0% | 49.7hPa | 0V | 00:00:00 | 00:00:00 | 00:00:00 | |
| PU1XMG-16 | 2026-09-04 12:37:44 | -22.62893 | -42.37493 | 267° | 7km/h | 20867m | 5.1m/s | -61.1°C | 2.0% | 50.0hPa | 0V | 00:00:00 | 00:00:00 | 00:00:00 | |
| PU1XMG-16 | 2026-09-04 12:37:39 | -22.62891 | -42.37486 | 120° | 5km/h | 20832m | 5.3m/s | -61.1°C | 1.9% | 50.3hPa | 0V | 00:00:00 | 00:00:00 | 00:00:00 | |
| PU1XMG-16 | 2026-09-04 12:37:32 | -22.62879 | -42.37490 | 180° | 11km/h | 20796m | 6.4m/s | -61.1°C | 1.9% | 50.6hPa | 0V | 00:00:00 | 00:00:00 | 00:00:00 | |
| PU1XMG-16 | 2026-09-04 12:37:24 | -22.62856 | -42.37498 | 159° | 4km/h | 20743m | 5.8m/s | -61.2°C | 1.9% | 51.0hPa | 0V | 00:00:00 | 00:00:00 | 00:00:00 | |
| PU1XMG-16 | 2026-09-04 12:37:15 | -22.62843 | -42.37494 | 154° | 13km/h | 20691m | 5.5m/s | -61.9°C | 2.0% | 51.4hPa | 0V | 00:00:00 | 00:00:00 | 00:00:00 | |
| PU1XMG-16 | 2026-09-04 12:37:09 | -22.62823 | -42.37508 | 145° | 16km/h | 20657m | 7.8m/s | -61.8°C | 2.0% | 51.7hPa | 0V | 00:00:00 | 00:00:00 | 00:00:00 | |
| PU1XMG-16 | 2026-09-04 12:35:51 | -22.62580 | -42.37785 | 154° | 27km/h | 20205m | 7.0m/s | -62.4°C | 2.1% | 55.6hPa | 0V | 00:00:00 | 00:00:00 | 00:00:00 | |
| PU1XMG-16 | 2026-09-04 12:35:46 | -22.62547 | -42.37801 | 161° | 20km/h | 20170m | 4.9m/s | -62.3°C | 2.2% | 56.0hPa | 0V | 00:00:00 | 00:00:00 | 00:00:00 | |
| PU1XMG-16 | 2026-09-04 12:34:30 | -22.62141 | -42.37880 | 131° | 13km/h | 19716m | 7.4m/s | -61.6°C | 2.0% | 60.2hPa | 0V | 00:00:00 | 00:00:00 | 00:00:00 | |
| PU1XMG-16 | 2026-09-04 12:33:47 | -22.62065 | -42.38097 | 82° | 22km/h | 19461m | 5.5m/s | -62.0°C | 2.1% | 62.8hPa | 0V | 00:00:00 | 00:00:00 | 00:00:00 | |
| PU1XMG-16 | 2026-09-04 12:33:39 | -22.62067 | -42.38142 | 82° | 24km/h | 19413m | 6.7m/s | -61.9°C | 2.1% | 63.3hPa | 0V | 00:00:00 | 00:00:00 | 00:00:00 | |
| PU1XMG-16 | 2026-09-04 12:33:33 | -22.62073 | -42.38182 | 89° | 26km/h | 19378m | 5.0m/s | -61.6°C | 2.1% | 63.6hPa | 0V | 00:00:00 | 00:00:00 | 00:00:00 | |
| PU1XMG-16 | 2026-09-04 12:33:05 | -22.62074 | -42.38320 | 82° | 27km/h | 19222m | 6.5m/s | -61.3°C | 2.2% | 65.3hPa | 0V | 00:00:00 | 00:00:00 | 00:00:00 | |
| PU1XMG-16 | 2026-09-04 12:32:53 | -22.62082 | -42.38391 | 75° | 24km/h | 19155m | 6.7m/s | -61.3°C | 2.2% | 65.9hPa | 0V | 00:00:00 | 00:00:00 | 00:00:00 | |
| PU1XMG-16 | 2026-09-04 12:32:48 | -22.62094 | -42.38434 | 73° | 27km/h | 19121m | 5.8m/s | -61.2°C | 2.2% | 66.3hPa | 0V | 00:00:00 | 00:00:00 | 00:00:00 | |
| PU1XMG-16 | 2026-09-04 12:32:05 | -22.62177 | -42.38718 | 66° | 37km/h | 18888m | 5.4m/s | -60.9°C | 2.2% | 68.9hPa | 0V | 00:00:00 | 00:00:00 | 00:00:00 | |
| PU1XMG-16 | 2026-09-04 12:31:59 | -22.62206 | -42.38777 | 66° | 31km/h | 18850m | 5.4m/s | -61.4°C | 2.2% | 69.3hPa | 0V | 00:00:00 | 00:00:00 | 00:00:00 | |
| PU1XMG-16 | 2026-09-04 12:31:49 | -22.62237 | -42.38861 | 67° | 46km/h | 18803m | 3.7m/s | -61.6°C | 2.4% | 69.8hPa | 0V | 00:00:00 | 00:00:00 | 00:00:00 | |
| PU1XMG-16 | 2026-09-04 12:31:44 | -22.62262 | -42.38930 | 71° | 44km/h | 18769m | 7.0m/s | -62.0°C | 2.5% | 70.2hPa | 0V | 00:00:00 | 00:00:00 | 00:00:00 | |
| PU1XMG-16 | 2026-09-04 12:31:39 | -22.62279 | -42.38987 | 78° | 46km/h | 18741m | 6.7m/s | -62.0°C | 2.5% | 70.5hPa | 0V | 00:00:00 | 00:00:00 | 00:00:00 | |
| PU1XMG-16 | 2026-09-04 12:31:33 | -22.62293 | -42.39068 | 84° | 53km/h | 18708m | 2.8m/s | -61.8°C | 2.6% | 70.9hPa | 0V | 00:00:00 | 00:00:00 | 00:00:00 | |
| PU1XMG-16 | 2026-09-04 12:31:26 | -22.62305 | -42.39148 | 83° | 47km/h | 18674m | 6.9m/s | -61.6°C | 2.7% | 71.3hPa | 0V | 00:00:00 | 00:00:00 | 00:00:00 | |
| PU1XMG-16 | 2026-09-04 12:31:19 | -22.62310 | -42.39240 | 83° | 46km/h | 18637m | 3.8m/s | -61.4°C | 2.6% | 71.7hPa | 0V | 00:00:00 | 00:00:00 | 00:00:00 | |
| PU1XMG-16 | 2026-09-04 12:31:13 | -22.62325 | -42.39319 | 79° | 55km/h | 18604m | 5.9m/s | -61.3°C | 2.7% | 72.1hPa | 0V | 00:00:00 | 00:00:00 | 00:00:00 | |
| PU1XMG-16 | 2026-09-04 12:31:08 | -22.62332 | -42.39390 | 94° | 49km/h | 18576m | 5.2m/s | -61.6°C | 2.8% | 72.4hPa | 0V | 00:00:00 | 00:00:00 | 00:00:00 | |
| PU1XMG-16 | 2026-09-04 12:31:02 | -22.62331 | -42.39463 | 81° | 49km/h | 18543m | 5.4m/s | -61.4°C | 2.8% | 72.8hPa | 0V | 00:00:00 | 00:00:00 | 00:00:00 | |
| PU1XMG-16 | 2026-09-04 12:30:56 | -22.62347 | -42.39543 | 86° | 47km/h | 18509m | 3.8m/s | -61.5°C | 3.0% | 73.2hPa | 0V | 00:00:00 | 00:00:00 | 00:00:00 | |
| PU1XMG-16 | 2026-09-04 12:30:50 | -22.62348 | -42.39629 | 86° | 44km/h | 18470m | 5.9m/s | -61.8°C | 3.0% | 73.7hPa | 0V | 00:00:00 | 00:00:00 | 00:00:00 | |
| PU1XMG-16 | 2026-09-04 12:30:44 | -22.62360 | -42.39693 | 76° | 49km/h | 18442m | 6.5m/s | -62.0°C | 3.0% | 74.0hPa | 0V | 00:00:00 | 00:00:00 | 00:00:00 | |
| PU1XMG-16 | 2026-09-04 12:30:37 | -22.62373 | -42.39802 | 85° | 49km/h | 18398m | 6.4m/s | -62.4°C | 3.1% | 74.5hPa | 0V | 00:00:00 | 00:00:00 | 00:00:00 | |
| PU1XMG-16 | 2026-09-04 12:30:26 | -22.62354 | -42.39935 | 112° | 53km/h | 18339m | 4.6m/s | -64.6°C | 3.7% | 75.2hPa | 0V | 00:00:00 | 00:00:00 | 00:00:00 | |
| PU1XMG-16 | 2026-09-04 12:30:18 | -22.62333 | -42.40030 | 102° | 44km/h | 18301m | 5.2m/s | -65.0°C | 4.1% | 75.7hPa | 0V | 00:00:00 | 00:00:00 | 00:00:00 | |
| PU1XMG-16 | 2026-09-04 12:30:11 | -22.62330 | -42.40136 | 85° | 57km/h | 18258m | 4.7m/s | -64.9°C | 4.0% | 76.3hPa | 0V | 00:00:00 | 00:00:00 | 00:00:00 | |
| PU1XMG-16 | 2026-09-04 12:26:17 | -22.62314 | -42.44304 | 107° | 93km/h | 16948m | 7.0m/s | -72.2°C | 10.6% | 94.9hPa | 0V | 00:00:00 | 00:00:00 | 00:00:00 | |
| PU1XMG-16 | 2026-09-04 12:26:11 | -22.62267 | -42.44463 | 109° | 104km/h | 16913m | 3.8m/s | -72.6°C | 10.8% | 95.5hPa | 0V | 00:00:00 | 00:00:00 | 00:00:00 | |
| PU1XMG-16 | 2026-09-04 12:26:04 | -22.62202 | -42.44666 | 111° | 95km/h | 16866m | 2.7m/s | -72.2°C | 10.8% | 96.3hPa | 0V | 00:00:00 | 00:00:00 | 00:00:00 | |
| PU1XMG-16 | 2026-09-04 12:25:53 | -22.62105 | -42.44939 | 113° | 97km/h | 16803m | 5.4m/s | -71.9°C | 10.5% | 97.3hPa | 0V | 00:00:00 | 00:00:00 | 00:00:00 | |
| PU1XMG-16 | 2026-09-04 12:25:47 | -22.62065 | -42.45057 | 110° | 89km/h | 16775m | 6.7m/s | -71.8°C | 10.5% | 97.7hPa | 0V | 00:00:00 | 00:00:00 | 00:00:00 | |
| PU1XMG-16 | 2026-09-04 12:25:41 | -22.62020 | -42.45203 | 108° | 93km/h | 16742m | 4.2m/s | -71.7°C | 10.7% | 98.3hPa | 0V | 00:00:00 | 00:00:00 | 00:00:00 | |
| PU1XMG-16 | 2026-09-04 12:25:35 | -22.61977 | -42.45342 | 111° | 88km/h | 16710m | 6.6m/s | -71.6°C | 10.6% | 98.9hPa | 0V | 00:00:00 | 00:00:00 | 00:00:00 | |
| PU1XMG-16 | 2026-09-04 12:25:30 | -22.61943 | -42.45454 | 108° | 84km/h | 16680m | 3.9m/s | -71.3°C | 10.8% | 99.3hPa | 0V | 00:00:00 | 00:00:00 | 00:00:00 | |
| PU1XMG-16 | 2026-09-04 12:25:24 | -22.61912 | -42.45590 | 103° | 86km/h | 16645m | 8.3m/s | -71.2°C | 10.5% | 99.9hPa | 0V | 00:00:00 | 00:00:00 | 00:00:00 | |
| PU1XMG-16 | 2026-09-04 12:25:19 | -22.61884 | -42.45727 | 103° | 78km/h | 16609m | 3.8m/s | -71.1°C | 10.2% | 100.5hPa | 0V | 00:00:00 | 00:00:00 | 00:00:00 | |
| PU1XMG-16 | 2026-09-04 12:25:13 | -22.61860 | -42.45833 | 101° | 80km/h | 16582m | 5.0m/s | -71.0°C | 10.5% | 101.0hPa | 0V | 00:00:00 | 00:00:00 | 00:00:00 | |
| PU1XMG-16 | 2026-09-04 12:25:07 | -22.61843 | -42.45963 | 96° | 75km/h | 16549m | 3.5m/s | -71.0°C | 10.3% | 101.6hPa | 0V | 00:00:00 | 00:00:00 | 00:00:00 | |
| PU1XMG-16 | 2026-09-04 12:25:02 | -22.61831 | -42.46092 | 96° | 82km/h | 16517m | 5.5m/s | -71.2°C | 10.6% | 102.1hPa | 0V | 00:00:00 | 00:00:00 | 00:00:00 | |
| PU1XMG-16 | 2026-09-04 12:24:55 | -22.61824 | -42.46246 | 93° | 77km/h | 16481m | 5.6m/s | -71.3°C | 10.2% | 102.8hPa | 0V | 00:00:00 | 00:00:00 | 00:00:00 | |
| PU1XMG-16 | 2026-09-04 12:24:45 | -22.61832 | -42.46433 | 83° | 80km/h | 16435m | 5.2m/s | -71.5°C | 10.2% | 103.5hPa | 0V | 00:00:00 | 00:00:00 | 00:00:00 | |
| PU1XMG-16 | 2026-09-04 12:24:40 | -22.61847 | -42.46565 | 84° | 84km/h | 16404m | 4.2m/s | -71.7°C | 10.4% | 104.1hPa | 0V | 00:00:00 | 00:00:00 | 00:00:00 | |
| PU1XMG-16 | 2026-09-04 12:18:09 | -22.65908 | -42.58662 | 73° | 153km/h | 14339m | 3.4m/s | -66.6°C | 19.0% | 147.1hPa | 0V | 00:00:00 | 00:00:00 | 00:00:00 | |
| PU1XMG-16 | 2026-09-04 12:18:02 | -22.65990 | -42.58947 | 75° | 159km/h | 14303m | 4.0m/s | -66.3°C | 19.4% | 148.0hPa | 0V | 00:00:00 | 00:00:00 | 00:00:00 | |
| PU1XMG-16 | 2026-09-04 12:17:54 | -22.66083 | -42.59312 | 75° | 151km/h | 14257m | 3.4m/s | -66.0°C | 17.7% | 149.1hPa | 0V | 00:00:00 | 00:00:00 | 00:00:00 | |
| PU1XMG-16 | 2026-09-04 12:17:47 | -22.66145 | -42.59554 | 76° | 155km/h | 14227m | 4.5m/s | -65.7°C | 17.3% | 149.8hPa | 0V | 00:00:00 | 00:00:00 | 00:00:00 | |
| PU1XMG-16 | 2026-09-04 12:17:41 | -22.66203 | -42.59798 | 77° | 151km/h | 14195m | 5.3m/s | -65.5°C | 16.7% | 150.6hPa | 0V | 00:00:00 | 00:00:00 | 00:00:00 | |
| PU1XMG-16 | 2026-09-04 12:17:35 | -22.66262 | -42.60043 | 76° | 155km/h | 14165m | 7.1m/s | -65.1°C | 16.4% | 151.4hPa | 0V | 00:00:00 | 00:00:00 | 00:00:00 | |
| PU1XMG-16 | 2026-09-04 12:17:29 | -22.66320 | -42.60290 | 77° | 153km/h | 14133m | 5.1m/s | -64.9°C | 16.0% | 152.1hPa | 0V | 00:00:00 | 00:00:00 | 00:00:00 | |
| PU1XMG-16 | 2026-09-04 12:17:24 | -22.66362 | -42.60490 | 79° | 150km/h | 14107m | 3.9m/s | -64.6°C | 15.1% | 152.8hPa | 0V | 00:00:00 | 00:00:00 | 00:00:00 | |
| PU1XMG-16 | 2026-09-04 12:17:18 | -22.66416 | -42.60733 | 76° | 155km/h | 14077m | 5.2m/s | -64.3°C | 15.0% | 153.5hPa | 0V | 00:00:00 | 00:00:00 | 00:00:00 | |
| PU1XMG-16 | 2026-09-04 12:17:12 | -22.66473 | -42.60978 | 79° | 151km/h | 14047m | 6.2m/s | -64.1°C | 15.0% | 154.3hPa | 0V | 00:00:00 | 00:00:00 | 00:00:00 | |
| PU1XMG-16 | 2026-09-04 12:17:07 | -22.66512 | -42.61178 | 80° | 150km/h | 14020m | 4.4m/s | -64.0°C | 14.0% | 155.0hPa | 0V | 00:00:00 | 00:00:00 | 00:00:00 | |
| PU1XMG-16 | 2026-09-04 12:17:02 | -22.66563 | -42.61424 | 77° | 157km/h | 13988m | 5.3m/s | -63.6°C | 13.3% | 155.8hPa | 0V | 00:00:00 | 00:00:00 | 00:00:00 | |
| PU1XMG-16 | 2026-09-04 12:16:55 | -22.66616 | -42.61671 | 80° | 148km/h | 13959m | 4.6m/s | -63.3°C | 13.6% | 156.5hPa | 0V | 00:00:00 | 00:00:00 | 00:00:00 | |
| PU1XMG-16 | 2026-09-04 12:16:49 | -22.66658 | -42.61912 | 80° | 155km/h | 13930m | 5.8m/s | -63.1°C | 13.2% | 157.3hPa | 0V | 00:00:00 | 00:00:00 | 00:00:00 | |
| PU1XMG-16 | 2026-09-04 12:16:44 | -22.66706 | -42.62158 | 80° | 150km/h | 13899m | 6.1m/s | -62.8°C | 12.9% | 158.0hPa | 0V | 00:00:00 | 00:00:00 | 00:00:00 | |
| PU1XMG-16 | 2026-09-04 12:16:17 | -22.66900 | -42.63218 | 80° | 153km/h | 13764m | 4.7m/s | -61.7°C | 12.2% | 161.5hPa | 0V | 00:00:00 | 00:00:00 | 00:00:00 | |
| PU1XMG-16 | 2026-09-04 12:16:12 | -22.66943 | -42.63465 | 81° | 150km/h | 13732m | 5.2m/s | -61.5°C | 11.9% | 162.4hPa | 0V | 00:00:00 | 00:00:00 | 00:00:00 | |
| PU1XMG-16 | 2026-09-04 12:16:05 | -22.66982 | -42.63709 | 81° | 151km/h | 13700m | 4.2m/s | -61.1°C | 11.8% | 163.2hPa | 0V | 00:00:00 | 00:00:00 | 00:00:00 | |
| PU1XMG-16 | 2026-09-04 12:16:00 | -22.67019 | -42.63953 | 83° | 150km/h | 13670m | 5.0m/s | -60.8°C | 11.5% | 164.0hPa | 0V | 00:00:00 | 00:00:00 | 00:00:00 | |
| PU1XMG-16 | 2026-09-04 12:15:53 | -22.67056 | -42.64195 | 81° | 150km/h | 13639m | 6.5m/s | -60.5°C | 11.5% | 164.8hPa | 0V | 00:00:00 | 00:00:00 | 00:00:00 | |
| PU1XMG-16 | 2026-09-04 12:15:48 | -22.67092 | -42.64397 | 80° | 150km/h | 13612m | 4.2m/s | -60.2°C | 12.0% | 165.5hPa | 0V | 00:00:00 | 00:00:00 | 00:00:00 | |
| PU1XMG-16 | 2026-09-04 12:15:42 | -22.67132 | -42.64641 | 82° | 151km/h | 13582m | 6.6m/s | -60.1°C | 12.2% | 166.3hPa | 0V | 00:00:00 | 00:00:00 | 00:00:00 | |
| PU1XMG-16 | 2026-09-04 12:15:36 | -22.67173 | -42.64884 | 80° | 146km/h | 13551m | 4.6m/s | -59.8°C | 12.5% | 167.1hPa | 0V | 00:00:00 | 00:00:00 | 00:00:00 | |
| PU1XMG-16 | 2026-09-04 12:15:31 | -22.67207 | -42.65079 | 80° | 146km/h | 13527m | 6.4m/s | -59.7°C | 12.9% | 167.8hPa | 0V | 00:00:00 | 00:00:00 | 00:00:00 | |
| PU1XMG-16 | 2026-09-04 12:15:26 | -22.67243 | -42.65280 | 79° | 148km/h | 13500m | 4.9m/s | -59.6°C | 12.9% | 168.5hPa | 0V | 00:00:00 | 00:00:00 | 00:00:00 | |
| PU1XMG-16 | 2026-09-04 12:15:20 | -22.67288 | -42.65513 | 78° | 144km/h | 13468m | 3.6m/s | -59.7°C | 13.8% | 169.3hPa | 0V | 00:00:00 | 00:00:00 | 00:00:00 | |
| PU1XMG-16 | 2026-09-04 12:15:15 | -22.67332 | -42.65707 | 77° | 146km/h | 13442m | 5.8m/s | -59.5°C | 13.6% | 170.0hPa | 0V | 00:00:00 | 00:00:00 | 00:00:00 | |
| PU1XMG-16 | 2026-09-04 12:15:10 | -22.67385 | -42.65946 | 78° | 150km/h | 13411m | 5.5m/s | -59.3°C | 14.0% | 170.9hPa | 0V | 00:00:00 | 00:00:00 | 00:00:00 | |
| PU1XMG-16 | 2026-09-04 12:15:04 | -22.67430 | -42.66141 | 78° | 146km/h | 13385m | 4.7m/s | -59.3°C | 14.2% | 171.6hPa | 0V | 00:00:00 | 00:00:00 | 00:00:00 | |
| PU1XMG-16 | 2026-09-04 12:14:59 | -22.67472 | -42.66375 | 82° | 148km/h | 13354m | 6.4m/s | -59.1°C | 14.6% | 172.5hPa | 0V | 00:00:00 | 00:00:00 | 00:00:00 | |
| PU1XMG-16 | 2026-09-04 12:14:53 | -22.67503 | -42.66574 | 81° | 148km/h | 13327m | 4.3m/s | -59.0°C | 14.9% | 173.2hPa | 0V | 00:00:00 | 00:00:00 | 00:00:00 | |
| PU1XMG-16 | 2026-09-04 12:14:48 | -22.67536 | -42.66772 | 82° | 146km/h | 13300m | 6.1m/s | -59.1°C | 14.5% | 173.9hPa | 0V | 00:00:00 | 00:00:00 | 00:00:00 | |
| PU1XMG-16 | 2026-09-04 12:14:43 | -22.67560 | -42.66971 | 84° | 146km/h | 13274m | 4.9m/s | -58.8°C | 14.1% | 174.7hPa | 0V | 00:00:00 | 00:00:00 | 00:00:00 | |
| PU1XMG-16 | 2026-09-04 12:14:38 | -22.67593 | -42.67212 | 82° | 150km/h | 13243m | 5.7m/s | -58.5°C | 13.1% | 175.5hPa | 0V | 00:00:00 | 00:00:00 | 00:00:00 | |
| PU1XMG-16 | 2026-09-04 12:14:29 | -22.67636 | -42.67534 | 82° | 148km/h | 13205m | 4.1m/s | -58.2°C | 13.3% | 176.6hPa | 0V | 00:00:00 | 00:00:00 | 00:00:00 | |
| PU1XMG-16 | 2026-09-04 12:14:24 | -22.67666 | -42.67776 | 84° | 150km/h | 13173m | 5.9m/s | -57.9°C | 12.8% | 177.5hPa | 0V | 00:00:00 | 00:00:00 | 00:00:00 | |
| PU1XMG-16 | 2026-09-04 12:14:02 | -22.67786 | -42.68622 | 82° | 151km/h | 13069m | 4.9m/s | -56.8°C | 11.5% | 180.4hPa | 0V | 00:00:00 | 00:00:00 | 00:00:00 | |
| PU1XMG-16 | 2026-09-04 12:13:56 | -22.67824 | -42.68866 | 81° | 148km/h | 13037m | 5.2m/s | -56.6°C | 10.8% | 181.3hPa | 0V | 00:00:00 | 00:00:00 | 00:00:00 | |
| PU1XMG-16 | 2026-09-04 12:13:51 | -22.67855 | -42.69066 | 81° | 148km/h | 13012m | 5.7m/s | -56.4°C | 10.1% | 182.0hPa | 0V | 00:00:00 | 00:00:00 | 00:00:00 | |
| PU1XMG-16 | 2026-09-04 12:13:46 | -22.67890 | -42.69264 | 80° | 150km/h | 12987m | 5.9m/s | -56.3°C | 10.4% | 182.8hPa | 0V | 00:00:00 | 00:00:00 | 00:00:00 | |
| PU1XMG-16 | 2026-09-04 12:13:40 | -22.67925 | -42.69509 | 83° | 151km/h | 12959m | 4.1m/s | -56.1°C | 10.5% | 183.6hPa | 0V | 00:00:00 | 00:00:00 | 00:00:00 | |
| PU1XMG-16 | 2026-09-04 12:13:35 | -22.67953 | -42.69712 | 83° | 146km/h | 12932m | 4.0m/s | -55.9°C | 10.8% | 184.4hPa | 0V | 00:00:00 | 00:00:00 | 00:00:00 | |
| PU1XMG-16 | 2026-09-04 12:13:29 | -22.67982 | -42.69950 | 85° | 148km/h | 12902m | 4.7m/s | -55.7°C | 10.7% | 185.2hPa | 0V | 00:00:00 | 00:00:00 | 00:00:00 | |
| PU1XMG-16 | 2026-09-04 12:13:23 | -22.68006 | -42.70189 | 85° | 148km/h | 12869m | 4.3m/s | -55.5°C | 10.5% | 186.2hPa | 0V | 00:00:00 | 00:00:00 | 00:00:00 | |
| PU1XMG-16 | 2026-09-04 12:13:19 | -22.68024 | -42.70395 | 86° | 153km/h | 12843m | 6.1m/s | -55.3°C | 11.0% | 186.9hPa | 0V | 00:00:00 | 00:00:00 | 00:00:00 | |
| PU1XMG-16 | 2026-09-04 12:13:13 | -22.68041 | -42.70597 | 86° | 142km/h | 12820m | 4.5m/s | -55.2°C | 11.1% | 187.6hPa | 0V | 00:00:00 | 00:00:00 | 00:00:00 | |
| PU1XMG-16 | 2026-09-04 12:13:07 | -22.68060 | -42.70827 | 87° | 141km/h | 12791m | 4.3m/s | -55.0°C | 10.5% | 188.5hPa | 0V | 00:00:00 | 00:00:00 | 00:00:00 | |
| PU1XMG-16 | 2026-09-04 12:13:01 | -22.68077 | -42.71064 | 86° | 146km/h | 12762m | 4.2m/s | -54.7°C | 10.6% | 189.3hPa | 0V | 00:00:00 | 00:00:00 | 00:00:00 | |
| PU1XMG-16 | 2026-09-04 12:12:56 | -22.68091 | -42.71263 | 88° | 146km/h | 12736m | 5.8m/s | -54.6°C | 10.6% | 190.1hPa | 0V | 00:00:00 | 00:00:00 | 00:00:00 | |
| PU1XMG-16 | 2026-09-04 12:12:51 | -22.68103 | -42.71504 | 86° | 146km/h | 12707m | 5.2m/s | -54.6°C | 11.4% | 190.9hPa | 0V | 00:00:00 | 00:00:00 | 00:00:00 | |
| PU1XMG-16 | 2026-09-04 12:12:45 | -22.68123 | -42.71742 | 86° | 142km/h | 12678m | 6.4m/s | -54.4°C | 11.2% | 191.8hPa | 0V | 00:00:00 | 00:00:00 | 00:00:00 | |
| PU1XMG-16 | 2026-09-04 12:12:39 | -22.68143 | -42.71974 | 85° | 144km/h | 12650m | 4.0m/s | -54.2°C | 11.2% | 192.7hPa | 0V | 00:00:00 | 00:00:00 | 00:00:00 | |
| PU1XMG-16 | 2026-09-04 12:12:33 | -22.68164 | -42.72172 | 84° | 146km/h | 12624m | 5.7m/s | -54.0°C | 11.2% | 193.4hPa | 0V | 00:00:00 | 00:00:00 | 00:00:00 | |
| PU1XMG-16 | 2026-09-04 12:12:27 | -22.68189 | -42.72403 | 86° | 139km/h | 12592m | 4.8m/s | -53.7°C | 11.1% | 194.4hPa | 0V | 00:00:00 | 00:00:00 | 00:00:00 | |
| PU1XMG-16 | 2026-09-04 12:12:22 | -22.68208 | -42.72597 | 85° | 146km/h | 12567m | 5.3m/s | -53.5°C | 10.7% | 195.1hPa | 0V | 00:00:00 | 00:00:00 | 00:00:00 | |
| PU1XMG-16 | 2026-09-04 12:12:16 | -22.68232 | -42.72835 | 85° | 144km/h | 12536m | 6.0m/s | -53.2°C | 10.9% | 196.0hPa | 0V | 00:00:00 | 00:00:00 | 00:00:00 | |
| PU1XMG-16 | 2026-09-04 12:12:11 | -22.68253 | -42.73028 | 85° | 139km/h | 12512m | 6.3m/s | -53.1°C | 10.7% | 196.7hPa | 0V | 00:00:00 | 00:00:00 | 00:00:00 | |
| PU1XMG-16 | 2026-09-04 12:12:06 | -22.68271 | -42.73257 | 87° | 142km/h | 12484m | 3.6m/s | -52.7°C | 10.5% | 197.7hPa | 0V | 00:00:00 | 00:00:00 | 00:00:00 | |
| PU1XMG-16 | 2026-09-04 12:11:59 | -22.68296 | -42.73492 | 81° | 142km/h | 12455m | 4.9m/s | -52.6°C | 9.9% | 198.5hPa | 0V | 00:00:00 | 00:00:00 | 00:00:00 | |
| PU1XMG-16 | 2026-09-04 12:11:54 | -22.68323 | -42.73685 | 85° | 144km/h | 12432m | 3.8m/s | -52.2°C | 9.7% | 199.2hPa | 0V | 00:00:00 | 00:00:00 | 00:00:00 | |
| PU1XMG-16 | 2026-09-04 12:11:48 | -22.68349 | -42.73918 | 83° | 141km/h | 12403m | 5.1m/s | -52.0°C | 9.4% | 200.0hPa | 0V | 00:00:00 | 00:00:00 | 00:00:00 | |
| PU1XMG-16 | 2026-09-04 12:11:43 | -22.68377 | -42.74110 | 82° | 142km/h | 12379m | 3.9m/s | -51.8°C | 9.1% | 200.8hPa | 0V | 00:00:00 | 00:00:00 | 00:00:00 | |
| PU1XMG-16 | 2026-09-04 12:11:38 | -22.68398 | -42.74304 | 85° | 144km/h | 12354m | 5.8m/s | -51.5°C | 9.1% | 201.6hPa | 0V | 00:00:00 | 00:00:00 | 00:00:00 | |
| PU1XMG-16 | 2026-09-04 12:11:33 | -22.68428 | -42.74536 | 81° | 141km/h | 12326m | 5.9m/s | -51.4°C | 8.9% | 202.5hPa | 0V | 00:00:00 | 00:00:00 | 00:00:00 | |
| PU1XMG-16 | 2026-09-04 12:11:27 | -22.68456 | -42.74727 | 83° | 142km/h | 12301m | 4.0m/s | -51.1°C | 8.7% | 203.3hPa | 0V | 00:00:00 | 00:00:00 | 00:00:00 | |
| PU1XMG-16 | 2026-09-04 12:11:21 | -22.68491 | -42.74961 | 80° | 146km/h | 12272m | 4.1m/s | -50.9°C | 8.6% | 204.3hPa | 0V | 00:00:00 | 00:00:00 | 00:00:00 | |
| PU1XMG-16 | 2026-09-04 12:11:15 | -22.68531 | -42.75192 | 81° | 139km/h | 12243m | 4.8m/s | -50.7°C | 8.4% | 205.2hPa | 0V | 00:00:00 | 00:00:00 | 00:00:00 | |
| PU1XMG-16 | 2026-09-04 12:11:11 | -22.68561 | -42.75381 | 80° | 141km/h | 12220m | 5.0m/s | -50.6°C | 8.7% | 205.9hPa | 0V | 00:00:00 | 00:00:00 | 00:00:00 | |
| PU1XMG-16 | 2026-09-04 12:11:04 | -22.68601 | -42.75611 | 81° | 142km/h | 12191m | 7.5m/s | -50.6°C | 8.8% | 206.8hPa | 0V | 00:00:00 | 00:00:00 | 00:00:00 | |
| PU1XMG-16 | 2026-09-04 12:10:59 | -22.68630 | -42.75802 | 82° | 142km/h | 12164m | 4.5m/s | -50.3°C | 8.7% | 207.6hPa | 0V | 00:00:00 | 00:00:00 | 00:00:00 | |
| PU1XMG-16 | 2026-09-04 12:10:54 | -22.68657 | -42.75994 | 82° | 141km/h | 12140m | 6.1m/s | -50.2°C | 8.7% | 208.5hPa | 0V | 00:00:00 | 00:00:00 | 00:00:00 | |
| PU1XMG-16 | 2026-09-04 12:10:48 | -22.68689 | -42.76222 | 84° | 141km/h | 12110m | 4.3m/s | -50.0°C | 8.9% | 209.4hPa | 0V | 00:00:00 | 00:00:00 | 00:00:00 | |
| PU1XMG-16 | 2026-09-04 12:10:09 | -22.68887 | -42.77687 | 82° | 139km/h | 11923m | 5.4m/s | -49.0°C | 9.4% | 215.4hPa | 0V | 00:00:00 | 00:00:00 | 00:00:00 | |
| PU1XMG-16 | 2026-09-04 12:09:59 | -22.68946 | -42.78057 | 83° | 139km/h | 11873m | 4.5m/s | -48.7°C | 8.9% | 217.0hPa | 0V | 00:00:00 | 00:00:00 | 00:00:00 | |
| PU1XMG-16 | 2026-09-04 12:09:53 | -22.68977 | -42.78283 | 82° | 137km/h | 11846m | 4.7m/s | -48.4°C | 9.3% | 217.9hPa | 0V | 00:00:00 | 00:00:00 | 00:00:00 | |
| PU1XMG-16 | 2026-09-04 12:09:48 | -22.69006 | -42.78469 | 81° | 137km/h | 11820m | 6.1m/s | -48.2°C | 9.2% | 218.7hPa | 0V | 00:00:00 | 00:00:00 | 00:00:00 | |
| PU1XMG-16 | 2026-09-04 12:09:43 | -22.69042 | -42.78691 | 80° | 137km/h | 11793m | 4.3m/s | -48.1°C | 8.9% | 219.7hPa | 0V | 00:00:00 | 00:00:00 | 00:00:00 | |
| PU1XMG-16 | 2026-09-04 12:09:36 | -22.69080 | -42.78913 | 81° | 139km/h | 11766m | 3.1m/s | -47.8°C | 9.3% | 220.6hPa | 0V | 00:00:00 | 00:00:00 | 00:00:00 | |
| PU1XMG-16 | 2026-09-04 12:09:30 | -22.69123 | -42.79138 | 79° | 139km/h | 11738m | 6.4m/s | -47.6°C | 9.8% | 221.5hPa | 0V | 00:00:00 | 00:00:00 | 00:00:00 | |
| PU1XMG-16 | 2026-09-04 12:09:24 | -22.69164 | -42.79361 | 80° | 139km/h | 11708m | 6.3m/s | -47.4°C | 9.4% | 222.4hPa | 0V | 00:00:00 | 00:00:00 | 00:00:00 | |
| PU1XMG-16 | 2026-09-04 12:09:19 | -22.69205 | -42.79582 | 79° | 137km/h | 11678m | 5.9m/s | -47.3°C | 9.6% | 223.5hPa | 0V | 00:00:00 | 00:00:00 | 00:00:00 | |
| PU1XMG-16 | 2026-09-04 12:08:51 | -22.69436 | -42.80586 | 77° | 139km/h | 11546m | 5.7m/s | -46.0°C | 10.3% | 228.0hPa | 0V | 00:00:00 | 00:00:00 | 00:00:00 | |
| PU1XMG-16 | 2026-09-04 12:08:47 | -22.69483 | -42.80772 | 75° | 142km/h | 11522m | 6.5m/s | -45.9°C | 10.9% | 228.8hPa | 0V | 00:00:00 | 00:00:00 | 00:00:00 | |
| PU1XMG-16 | 2026-09-04 12:08:40 | -22.69545 | -42.80997 | 73° | 141km/h | 11494m | 6.1m/s | -45.7°C | 11.2% | 229.8hPa | 0V | 00:00:00 | 00:00:00 | 00:00:00 | |
| PU1XMG-16 | 2026-09-04 12:08:36 | -22.69597 | -42.81179 | 75° | 139km/h | 11470m | 5.9m/s | -45.5°C | 11.0% | 230.6hPa | 0V | 00:00:00 | 00:00:00 | 00:00:00 | |
| PU1XMG-16 | 2026-09-04 12:08:30 | -22.69662 | -42.81403 | 73° | 146km/h | 11437m | 3.7m/s | -45.2°C | 11.6% | 231.7hPa | 0V | 00:00:00 | 00:00:00 | 00:00:00 | |
| PU1XMG-16 | 2026-09-04 12:08:23 | -22.69727 | -42.81632 | 75° | 144km/h | 11407m | 5.5m/s | -44.9°C | 11.6% | 232.8hPa | 0V | 00:00:00 | 00:00:00 | 00:00:00 | |
| PU1XMG-16 | 2026-09-04 12:08:18 | -22.69784 | -42.81819 | 71° | 148km/h | 11381m | 4.6m/s | -44.7°C | 11.4% | 233.7hPa | 0V | 00:00:00 | 00:00:00 | 00:00:00 | |
| PU1XMG-16 | 2026-09-04 12:08:13 | -22.69847 | -42.82011 | 72° | 148km/h | 11357m | 3.6m/s | -44.4°C | 11.2% | 234.6hPa | 0V | 00:00:00 | 00:00:00 | 00:00:00 | |
| PU1XMG-16 | 2026-09-04 12:08:08 | -22.69912 | -42.82240 | 74° | 144km/h | 11327m | 4.5m/s | -44.1°C | 11.0% | 235.6hPa | 0V | 00:00:00 | 00:00:00 | 00:00:00 | |
| PU1XMG-16 | 2026-09-04 12:08:01 | -22.69985 | -42.82467 | 71° | 150km/h | 11297m | 4.4m/s | -43.9°C | 10.6% | 236.6hPa | 0V | 00:00:00 | 00:00:00 | 00:00:00 | |
| PU1XMG-16 | 2026-09-04 12:07:56 | -22.70041 | -42.82660 | 76° | 146km/h | 11272m | 6.6m/s | -43.7°C | 10.3% | 237.4hPa | 0V | 00:00:00 | 00:00:00 | 00:00:00 | |
| PU1XMG-16 | 2026-09-04 12:07:50 | -22.70104 | -42.82884 | 71° | 146km/h | 11245m | 3.9m/s | -43.4°C | 10.2% | 238.4hPa | 0V | 00:00:00 | 00:00:00 | 00:00:00 | |
| PU1XMG-16 | 2026-09-04 12:07:45 | -22.70170 | -42.83075 | 73° | 151km/h | 11222m | 2.7m/s | -43.1°C | 10.6% | 239.2hPa | 0V | 00:00:00 | 00:00:00 | 00:00:00 | |
| PU1XMG-16 | 2026-09-04 12:07:39 | -22.70238 | -42.83302 | 72° | 144km/h | 11186m | 4.0m/s | -42.9°C | 10.3% | 240.4hPa | 0V | 00:00:00 | 00:00:00 | 00:00:00 | |
| PU1XMG-16 | 2026-09-04 12:07:34 | -22.70297 | -42.83492 | 73° | 151km/h | 11154m | 5.5m/s | -42.6°C | 9.9% | 241.6hPa | 0V | 00:00:00 | 00:00:00 | 00:00:00 | |
| PU1XMG-16 | 2026-09-04 12:07:29 | -22.70355 | -42.83686 | 73° | 146km/h | 11126m | 6.0m/s | -42.2°C | 9.8% | 242.6hPa | 0V | 00:00:00 | 00:00:00 | 00:00:00 | |
| PU1XMG-16 | 2026-09-04 12:07:24 | -22.70415 | -42.83873 | 70° | 144km/h | 11101m | 3.1m/s | -41.9°C | 10.3% | 243.5hPa | 0V | 00:00:00 | 00:00:00 | 00:00:00 | |
| PU1XMG-16 | 2026-09-04 12:07:18 | -22.70487 | -42.84100 | 73° | 146km/h | 11073m | 5.3m/s | -41.8°C | 9.5% | 244.5hPa | 0V | 00:00:00 | 00:00:00 | 00:00:00 | |
| PU1XMG-16 | 2026-09-04 12:07:13 | -22.70543 | -42.84292 | 74° | 148km/h | 11048m | 6.9m/s | -41.5°C | 9.7% | 245.5hPa | 0V | 00:00:00 | 00:00:00 | 00:00:00 | |
| PU1XMG-16 | 2026-09-04 12:07:01 | -22.70677 | -42.84750 | 73° | 148km/h | 10992m | 5.9m/s | -41.0°C | 9.5% | 247.5hPa | 0V | 00:00:00 | 00:00:00 | 00:00:00 | |
| PU1XMG-16 | 2026-09-04 12:06:56 | -22.70734 | -42.84944 | 73° | 148km/h | 10968m | 5.4m/s | -40.7°C | 9.5% | 248.4hPa | 0V | 00:00:00 | 00:00:00 | 00:00:00 | |
| PU1XMG-16 | 2026-09-04 12:06:51 | -22.70788 | -42.85136 | 75° | 146km/h | 10943m | 3.9m/s | -40.6°C | 9.7% | 249.2hPa | 0V | 00:00:00 | 00:00:00 | 00:00:00 | |
| PU1XMG-16 | 2026-09-04 12:06:45 | -22.70856 | -42.85365 | 73° | 148km/h | 10914m | 4.9m/s | -40.3°C | 10.6% | 250.3hPa | 0V | 00:00:00 | 00:00:00 | 00:00:00 | |
| PU1XMG-16 | 2026-09-04 12:06:40 | -22.70912 | -42.85560 | 74° | 148km/h | 10889m | 5.7m/s | -40.2°C | 10.4% | 251.2hPa | 0V | 00:00:00 | 00:00:00 | 00:00:00 | |
| PU1XMG-16 | 2026-09-04 12:06:35 | -22.70964 | -42.85752 | 74° | 148km/h | 10865m | 5.4m/s | -39.9°C | 10.5% | 252.1hPa | 0V | 00:00:00 | 00:00:00 | 00:00:00 | |
| PU1XMG-16 | 2026-09-04 12:06:30 | -22.71021 | -42.85949 | 74° | 151km/h | 10843m | 4.5m/s | -39.6°C | 10.5% | 252.9hPa | 0V | 00:00:00 | 00:00:00 | 00:00:00 | |
| PU1XMG-16 | 2026-09-04 12:06:24 | -22.71083 | -42.86185 | 76° | 146km/h | 10812m | 4.8m/s | -39.4°C | 10.1% | 254.0hPa | 0V | 00:00:00 | 00:00:00 | 00:00:00 | |
| PU1XMG-16 | 2026-09-04 12:06:19 | -22.71135 | -42.86379 | 74° | 148km/h | 10788m | 4.7m/s | -39.2°C | 10.0% | 254.9hPa | 0V | 00:00:00 | 00:00:00 | 00:00:00 | |
| PU1XMG-16 | 2026-09-04 12:06:13 | -22.71197 | -42.86614 | 76° | 150km/h | 10760m | 5.8m/s | -38.9°C | 9.8% | 255.9hPa | 0V | 00:00:00 | 00:00:00 | 00:00:00 | |
| PU1XMG-16 | 2026-09-04 12:06:08 | -22.71249 | -42.86810 | 75° | 150km/h | 10735m | 5.2m/s | -38.7°C | 9.5% | 256.9hPa | 0V | 00:00:00 | 00:00:00 | 00:00:00 | |
| PU1XMG-16 | 2026-09-04 12:06:01 | -22.71317 | -42.87086 | 76° | 151km/h | 10702m | 6.1m/s | -38.3°C | 9.6% | 258.1hPa | 0V | 00:00:00 | 00:00:00 | 00:00:00 | |
| PU1XMG-16 | 2026-09-04 12:05:56 | -22.71369 | -42.87282 | 75° | 144km/h | 10676m | 5.2m/s | -38.2°C | 9.3% | 259.1hPa | 0V | 00:00:00 | 00:00:00 | 00:00:00 | |
| PU1XMG-16 | 2026-09-04 12:05:50 | -22.71428 | -42.87513 | 75° | 151km/h | 10649m | 4.3m/s | -37.9°C | 9.0% | 260.2hPa | 0V | 00:00:00 | 00:00:00 | 00:00:00 | |
| PU1XMG-16 | 2026-09-04 12:05:45 | -22.71479 | -42.87714 | 76° | 151km/h | 10625m | 5.5m/s | -37.6°C | 9.0% | 261.1hPa | 0V | 00:00:00 | 00:00:00 | 00:00:00 | |
| PU1XMG-16 | 2026-09-04 12:05:39 | -22.71539 | -42.87947 | 75° | 146km/h | 10596m | 6.7m/s | -37.4°C | 8.8% | 262.2hPa | 0V | 00:00:00 | 00:00:00 | 00:00:00 | |
| PU1XMG-16 | 2026-09-04 12:05:33 | -22.71598 | -42.88182 | 77° | 151km/h | 10567m | 5.7m/s | -37.1°C | 8.5% | 263.3hPa | 0V | 00:00:00 | 00:00:00 | 00:00:00 | |
| PU1XMG-16 | 2026-09-04 12:05:27 | -22.71656 | -42.88419 | 76° | 142km/h | 10536m | 5.7m/s | -36.8°C | 8.3% | 264.4hPa | 0V | 00:00:00 | 00:00:00 | 00:00:00 | |
| PU1XMG-16 | 2026-09-04 12:05:14 | -22.71774 | -42.88915 | 77° | 150km/h | 10476m | 6.7m/s | -36.4°C | 7.7% | 266.8hPa | 0V | 00:00:00 | 00:00:00 | 00:00:00 | |
| PU1XMG-16 | 2026-09-04 12:05:08 | -22.71825 | -42.89145 | 78° | 142km/h | 10444m | 5.3m/s | -36.1°C | 7.3% | 268.0hPa | 0V | 00:00:00 | 00:00:00 | 00:00:00 | |
| PU1XMG-16 | 2026-09-04 12:05:03 | -22.71866 | -42.89338 | 78° | 144km/h | 10418m | 6.9m/s | -35.9°C | 7.2% | 269.0hPa | 0V | 00:00:00 | 00:00:00 | 00:00:00 | |
| PU1XMG-16 | 2026-09-04 12:04:57 | -22.71911 | -42.89568 | 78° | 141km/h | 10384m | 4.8m/s | -35.6°C | 7.1% | 270.3hPa | 0V | 00:00:00 | 00:00:00 | 00:00:00 | |
| PU1XMG-16 | 2026-09-04 12:04:52 | -22.71949 | -42.89759 | 79° | 148km/h | 10358m | 5.1m/s | -35.4°C | 7.0% | 271.3hPa | 0V | 00:00:00 | 00:00:00 | 00:00:00 | |
| PU1XMG-16 | 2026-09-04 12:04:46 | -22.71988 | -42.89994 | 82° | 139km/h | 10321m | 7.9m/s | -35.0°C | 6.7% | 272.7hPa | 0V | 00:00:00 | 00:00:00 | 00:00:00 | |
| PU1XMG-16 | 2026-09-04 12:04:41 | -22.72020 | -42.90182 | 80° | 142km/h | 10287m | 8.0m/s | -34.7°C | 6.3% | 273.9hPa | 0V | 00:00:00 | 00:00:00 | 00:00:00 | |
| PU1XMG-16 | 2026-09-04 12:04:36 | -22.72054 | -42.90373 | 81° | 141km/h | 10258m | 5.4m/s | -34.5°C | 6.1% | 275.1hPa | 0V | 00:00:00 | 00:00:00 | 00:00:00 | |
| PU1XMG-16 | 2026-09-04 12:04:31 | -22.72081 | -42.90564 | 83° | 144km/h | 10231m | 4.8m/s | -34.2°C | 5.7% | 276.2hPa | 0V | 00:00:00 | 00:00:00 | 00:00:00 | |
| PU1XMG-16 | 2026-09-04 12:04:26 | -22.72109 | -42.90756 | 81° | 142km/h | 10204m | 4.8m/s | -34.0°C | 4.9% | 277.2hPa | 0V | 00:00:00 | 00:00:00 | 00:00:00 | |
| PU1XMG-16 | 2026-09-04 12:04:20 | -22.72148 | -42.90983 | 81° | 141km/h | 10173m | 7.1m/s | -33.7°C | 3.8% | 278.5hPa | 0V | 00:00:00 | 00:00:00 | 00:00:00 | |
| PU1XMG-16 | 2026-09-04 12:04:15 | -22.72172 | -42.91175 | 84° | 142km/h | 10146m | 3.6m/s | -33.6°C | 3.6% | 279.5hPa | 0V | 00:00:00 | 00:00:00 | 00:00:00 | |
| PU1XMG-16 | 2026-09-04 12:04:11 | -22.72197 | -42.91364 | 82° | 139km/h | 10120m | 4.6m/s | -33.4°C | 3.6% | 280.6hPa | 0V | 00:00:00 | 00:00:00 | 00:00:00 | |
| PU1XMG-16 | 2026-09-04 12:04:04 | -22.72233 | -42.91592 | 81° | 141km/h | 10088m | 5.0m/s | -33.1°C | 3.6% | 281.8hPa | 0V | 00:00:00 | 00:00:00 | 00:00:00 | |
| PU1XMG-16 | 2026-09-04 12:03:59 | -22.72258 | -42.91783 | 83° | 139km/h | 10064m | 6.0m/s | -32.9°C | 3.5% | 282.8hPa | 0V | 00:00:00 | 00:00:00 | 00:00:00 | |
| PU1XMG-16 | 2026-09-04 12:03:55 | -22.72287 | -42.91977 | 81° | 144km/h | 10029m | 6.4m/s | -32.6°C | 3.5% | 284.2hPa | 0V | 00:00:00 | 00:00:00 | 00:00:00 | |
| PU1XMG-16 | 2026-09-04 12:03:49 | -22.72323 | -42.92167 | 78° | 141km/h | 9997m | 6.8m/s | -32.4°C | 3.4% | 285.5hPa | 0V | 00:00:00 | 00:00:00 | 00:00:00 | |
| PU1XMG-16 | 2026-09-04 12:03:43 | -22.72364 | -42.92391 | 81° | 141km/h | 9963m | 7.6m/s | -32.2°C | 3.2% | 287.0hPa | 0V | 00:00:00 | 00:00:00 | 00:00:00 | |
| PU1XMG-16 | 2026-09-04 12:03:38 | -22.72398 | -42.92619 | 81° | 139km/h | 9931m | 6.3m/s | -32.0°C | 3.4% | 288.2hPa | 0V | 00:00:00 | 00:00:00 | 00:00:00 | |
| PU1XMG-16 | 2026-09-04 12:03:32 | -22.72434 | -42.92847 | 82° | 141km/h | 9900m | 4.3m/s | -31.8°C | 3.6% | 289.5hPa | 0V | 00:00:00 | 00:00:00 | 00:00:00 | |
| PU1XMG-16 | 2026-09-04 12:03:20 | -22.72503 | -42.93254 | 80° | 137km/h | 9844m | 4.8m/s | -31.6°C | 4.5% | 291.8hPa | 0V | 00:00:00 | 00:00:00 | 00:00:00 | |
| PU1XMG-16 | 2026-09-04 12:03:15 | -22.72536 | -42.93440 | 81° | 141km/h | 9818m | 6.4m/s | -31.5°C | 4.0% | 292.9hPa | 0V | 00:00:00 | 00:00:00 | 00:00:00 | |
| PU1XMG-16 | 2026-09-04 12:03:09 | -22.72576 | -42.93660 | 79° | 133km/h | 9786m | 6.3m/s | -31.3°C | 3.4% | 294.2hPa | 0V | 00:00:00 | 00:00:00 | 00:00:00 | |
| PU1XMG-16 | 2026-09-04 12:03:03 | -22.72613 | -42.93872 | 81° | 130km/h | 9757m | 2.7m/s | -31.0°C | 3.2% | 295.5hPa | 0V | 00:00:00 | 00:00:00 | 00:00:00 | |
| PU1XMG-16 | 2026-09-04 12:02:58 | -22.72647 | -42.94053 | 78° | 137km/h | 9732m | 5.8m/s | -30.8°C | 3.1% | 296.5hPa | 0V | 00:00:00 | 00:00:00 | 00:00:00 | |
| PU1XMG-16 | 2026-09-04 12:02:52 | -22.72702 | -42.94275 | 76° | 137km/h | 9700m | 6.2m/s | -30.6°C | 3.1% | 297.9hPa | 0V | 00:00:00 | 00:00:00 | 00:00:00 | |
| PU1XMG-16 | 2026-09-04 12:02:46 | -22.72756 | -42.94490 | 77° | 135km/h | 9667m | 6.6m/s | -30.3°C | 3.1% | 299.2hPa | 0V | 00:00:00 | 00:00:00 | 00:00:00 | |
| PU1XMG-16 | 2026-09-04 12:02:41 | -22.72795 | -42.94673 | 78° | 139km/h | 9640m | 6.1m/s | -30.1°C | 3.1% | 300.4hPa | 0V | 00:00:00 | 00:00:00 | 00:00:00 | |
| PU1XMG-16 | 2026-09-04 12:02:36 | -22.72842 | -42.94858 | 72° | 141km/h | 9611m | 7.7m/s | -29.9°C | 3.1% | 301.6hPa | 0V | 00:00:00 | 00:00:00 | 00:00:00 | |
| PU1XMG-16 | 2026-09-04 12:02:30 | -22.72908 | -42.95071 | 73° | 133km/h | 9572m | 5.5m/s | -29.5°C | 3.1% | 303.2hPa | 0V | 00:00:00 | 00:00:00 | 00:00:00 | |
| PU1XMG-16 | 2026-09-04 12:02:25 | -22.72956 | -42.95247 | 75° | 139km/h | 9542m | 5.6m/s | -29.3°C | 3.1% | 304.5hPa | 0V | 00:00:00 | 00:00:00 | 00:00:00 | |
| PU1XMG-16 | 2026-09-04 12:02:19 | -22.73020 | -42.95464 | 72° | 137km/h | 9511m | 4.4m/s | -29.0°C | 3.1% | 305.8hPa | 0V | 00:00:00 | 00:00:00 | 00:00:00 | |
| PU1XMG-16 | 2026-09-04 12:02:14 | -22.73077 | -42.95638 | 72° | 135km/h | 9485m | 6.0m/s | -28.8°C | 3.1% | 306.9hPa | 0V | 00:00:00 | 00:00:00 | 00:00:00 | |
| PU1XMG-16 | 2026-09-04 12:02:08 | -22.73146 | -42.95853 | 71° | 141km/h | 9457m | 4.5m/s | -28.6°C | 3.0% | 308.1hPa | 0V | 00:00:00 | 00:00:00 | 00:00:00 | |
| PU1XMG-16 | 2026-09-04 12:02:03 | -22.73208 | -42.96037 | 72° | 142km/h | 9433m | 5.6m/s | -28.3°C | 3.0% | 309.2hPa | 0V | 00:00:00 | 00:00:00 | 00:00:00 | |
| PU1XMG-16 | 2026-09-04 12:01:58 | -22.73265 | -42.96216 | 72° | 139km/h | 9409m | 4.6m/s | -28.1°C | 3.0% | 310.2hPa | 0V | 00:00:00 | 00:00:00 | 00:00:00 | |
| PU1XMG-16 | 2026-09-04 12:01:53 | -22.73323 | -42.96394 | 72° | 137km/h | 9383m | 6.5m/s | -27.9°C | 2.9% | 311.3hPa | 0V | 00:00:00 | 00:00:00 | 00:00:00 | |
| PU1XMG-16 | 2026-09-04 12:01:48 | -22.73394 | -42.96608 | 71° | 141km/h | 9353m | 5.4m/s | -27.7°C | 2.9% | 312.6hPa | 0V | 00:00:00 | 00:00:00 | 00:00:00 | |
| PU1XMG-16 | 2026-09-04 12:01:37 | -22.73506 | -42.96969 | 74° | 137km/h | 9301m | 5.7m/s | -27.2°C | 2.8% | 315.0hPa | 0V | 00:00:00 | 00:00:00 | 00:00:00 | |
| PU1XMG-16 | 2026-09-04 12:01:31 | -22.73569 | -42.97183 | 72° | 139km/h | 9268m | 4.1m/s | -27.0°C | 2.8% | 316.3hPa | 0V | 00:00:00 | 00:00:00 | 00:00:00 | |
| PU1XMG-16 | 2026-09-04 12:01:26 | -22.73635 | -42.97398 | 75° | 139km/h | 9237m | 5.8m/s | -26.7°C | 2.8% | 317.6hPa | 0V | 00:00:00 | 00:00:00 | 00:00:00 | |
| PU1XMG-16 | 2026-09-04 12:01:20 | -22.73689 | -42.97580 | 72° | 142km/h | 9212m | 6.2m/s | -26.6°C | 2.8% | 318.7hPa | 0V | 00:00:00 | 00:00:00 | 00:00:00 | |
| PU1XMG-16 | 2026-09-04 12:01:15 | -22.73748 | -42.97761 | 72° | 137km/h | 9187m | 4.2m/s | -26.4°C | 2.8% | 319.8hPa | 0V | 00:00:00 | 00:00:00 | 00:00:00 | |
| PU1XMG-16 | 2026-09-04 12:01:10 | -22.73804 | -42.97938 | 73° | 135km/h | 9162m | 5.3m/s | -26.3°C | 2.7% | 320.9hPa | 0V | 00:00:00 | 00:00:00 | 00:00:00 | |
| PU1XMG-16 | 2026-09-04 12:01:04 | -22.73871 | -42.98157 | 72° | 142km/h | 9128m | 6.3m/s | -26.1°C | 2.7% | 322.3hPa | 0V | 00:00:00 | 00:00:00 | 00:00:00 | |
| PU1XMG-16 | 2026-09-04 12:00:59 | -22.73934 | -42.98341 | 71° | 142km/h | 9103m | 4.7m/s | -26.1°C | 3.1% | 323.5hPa | 0V | 00:00:00 | 00:00:00 | 00:00:00 | |
| PU1XMG-16 | 2026-09-04 12:00:55 | -22.73999 | -42.98521 | 69° | 142km/h | 9078m | 3.9m/s | -26.0°C | 3.2% | 324.6hPa | 0V | 00:00:00 | 00:00:00 | 00:00:00 | |
| PU1XMG-16 | 2026-09-04 12:00:49 | -22.74065 | -42.98703 | 69° | 141km/h | 9051m | 5.4m/s | -25.8°C | 3.1% | 325.8hPa | 0V | 00:00:00 | 00:00:00 | 00:00:00 | |
| PU1XMG-16 | 2026-09-04 12:00:43 | -22.74149 | -42.98919 | 67° | 146km/h | 9024m | 3.7m/s | -25.7°C | 3.1% | 327.1hPa | 0V | 00:00:00 | 00:00:00 | 00:00:00 | |
| PU1XMG-16 | 2026-09-04 12:00:37 | -22.74234 | -42.99132 | 68° | 137km/h | 8995m | 4.4m/s | -25.4°C | 3.0% | 328.4hPa | 0V | 00:00:00 | 00:00:00 | 00:00:00 | |
| PU1XMG-16 | 2026-09-04 12:00:31 | -22.74320 | -42.99338 | 66° | 142km/h | 8964m | 4.6m/s | -25.2°C | 3.0% | 329.9hPa | 0V | 00:00:00 | 00:00:00 | 00:00:00 | |
| PU1XMG-16 | 2026-09-04 12:00:26 | -22.74392 | -42.99516 | 68° | 141km/h | 8940m | 5.3m/s | -25.0°C | 3.0% | 330.9hPa | 0V | 00:00:00 | 00:00:00 | 00:00:00 | |
| PU1XMG-16 | 2026-09-04 12:00:20 | -22.74478 | -42.99726 | 67° | 141km/h | 8910m | 4.6m/s | -24.7°C | 3.0% | 332.3hPa | 0V | 00:00:00 | 00:00:00 | 00:00:00 | |
| PU1XMG-16 | 2026-09-04 12:00:16 | -22.74546 | -42.99901 | 70° | 137km/h | 8885m | 6.3m/s | -24.5°C | 3.0% | 333.4hPa | 0V | 00:00:00 | 00:00:00 | 00:00:00 | |
| PU1XMG-16 | 2026-09-04 12:00:09 | -22.74619 | -43.00113 | 69° | 139km/h | 8853m | 5.9m/s | -24.5°C | 3.1% | 334.8hPa | 0V | 00:00:00 | 00:00:00 | 00:00:00 | |
| PU1XMG-16 | 2026-09-04 12:00:03 | -22.74708 | -43.00325 | 68° | 141km/h | 8824m | 3.4m/s | -24.3°C | 3.0% | 336.2hPa | 0V | 00:00:00 | 00:00:00 | 00:00:00 | |
| PU1XMG-16 | 2026-09-04 11:59:58 | -22.74772 | -43.00502 | 71° | 135km/h | 8799m | 6.3m/s | -24.2°C | 2.7% | 337.4hPa | 0V | 00:00:00 | 00:00:00 | 00:00:00 | |
| PU1XMG-16 | 2026-09-04 11:59:52 | -22.74856 | -43.00709 | 66° | 142km/h | 8769m | 4.3m/s | -24.3°C | 3.1% | 338.7hPa | 0V | 00:00:00 | 00:00:00 | 00:00:00 | |
| PU1XMG-16 | 2026-09-04 11:59:40 | -22.75036 | -43.01132 | 67° | 139km/h | 8711m | 6.2m/s | -24.3°C | 3.8% | 341.4hPa | 0V | 00:00:00 | 00:00:00 | 00:00:00 | |
| PU1XMG-16 | 2026-09-04 11:59:35 | -22.75103 | -43.01299 | 66° | 131km/h | 8688m | 5.7m/s | -24.2°C | 3.8% | 342.5hPa | 0V | 00:00:00 | 00:00:00 | 00:00:00 | |
| PU1XMG-16 | 2026-09-04 11:59:29 | -22.75193 | -43.01499 | 65° | 137km/h | 8655m | 5.8m/s | -24.0°C | 3.7% | 343.9hPa | 0V | 00:00:00 | 00:00:00 | 00:00:00 | |
| PU1XMG-16 | 2026-09-04 11:59:24 | -22.75262 | -43.01671 | 68° | 135km/h | 8629m | 5.4m/s | -23.9°C | 3.8% | 345.2hPa | 0V | 00:00:00 | 00:00:00 | 00:00:00 | |
| PU1XMG-16 | 2026-09-04 11:59:18 | -22.75346 | -43.01868 | 66° | 131km/h | 8598m | 6.9m/s | -23.7°C | 3.7% | 346.7hPa | 0V | 00:00:00 | 00:00:00 | 00:00:00 | |
| PU1XMG-16 | 2026-09-04 11:59:13 | -22.75414 | -43.02034 | 67° | 133km/h | 8571m | 4.5m/s | -23.6°C | 3.7% | 347.9hPa | 0V | 00:00:00 | 00:00:00 | 00:00:00 | |
| PU1XMG-16 | 2026-09-04 11:59:08 | -22.75486 | -43.02199 | 64° | 135km/h | 8548m | 6.0m/s | -23.5°C | 4.0% | 349.0hPa | 0V | 00:00:00 | 00:00:00 | 00:00:00 | |
| PU1XMG-16 | 2026-09-04 11:59:03 | -22.75559 | -43.02360 | 66° | 130km/h | 8523m | 3.9m/s | -23.8°C | 5.1% | 350.2hPa | 0V | 00:00:00 | 00:00:00 | 00:00:00 | |
| PU1XMG-16 | 2026-09-04 11:58:57 | -22.75637 | -43.02554 | 67° | 130km/h | 8495m | 5.7m/s | -23.8°C | 5.5% | 351.6hPa | 0V | 00:00:00 | 00:00:00 | 00:00:00 | |
| PU1XMG-16 | 2026-09-04 11:58:51 | -22.75721 | -43.02748 | 64° | 131km/h | 8466m | 5.5m/s | -23.8°C | 5.6% | 352.9hPa | 0V | 00:00:00 | 00:00:00 | 00:00:00 | |
| PU1XMG-16 | 2026-09-04 11:58:46 | -22.75814 | -43.02938 | 63° | 124km/h | 8436m | 5.8m/s | -23.6°C | 5.8% | 354.5hPa | 0V | 00:00:00 | 00:00:00 | 00:00:00 | |
| PU1XMG-16 | 2026-09-04 11:58:39 | -22.75904 | -43.03126 | 63° | 135km/h | 8410m | 4.3m/s | -23.4°C | 5.8% | 355.7hPa | 0V | 00:00:00 | 00:00:00 | 00:00:00 | |
| PU1XMG-16 | 2026-09-04 11:58:34 | -22.75985 | -43.03294 | 64° | 139km/h | 8385m | 5.2m/s | -23.3°C | 5.9% | 356.9hPa | 0V | 00:00:00 | 00:00:00 | 00:00:00 | |
| PU1XMG-16 | 2026-09-04 11:58:28 | -22.76079 | -43.03490 | 64° | 133km/h | 8359m | 6.6m/s | -23.2°C | 5.8% | 358.1hPa | 0V | 00:00:00 | 00:00:00 | 00:00:00 | |
| PU1XMG-16 | 2026-09-04 11:58:23 | -22.76158 | -43.03655 | 62° | 139km/h | 8335m | 5.0m/s | -23.1°C | 5.7% | 359.3hPa | 0V | 00:00:00 | 00:00:00 | 00:00:00 | |
| PU1XMG-16 | 2026-09-04 11:58:18 | -22.76239 | -43.03822 | 65° | 135km/h | 8315m | 3.7m/s | -23.0°C | 5.8% | 360.3hPa | 0V | 00:00:00 | 00:00:00 | 00:00:00 | |
| PU1XMG-16 | 2026-09-04 11:58:13 | -22.76316 | -43.03986 | 64° | 133km/h | 8295m | 6.0m/s | -22.9°C | 6.0% | 361.3hPa | 0V | 00:00:00 | 00:00:00 | 00:00:00 | |
| PU1XMG-16 | 2026-09-04 11:58:07 | -22.76403 | -43.04178 | 66° | 130km/h | 8266m | 5.5m/s | -22.8°C | 6.0% | 362.8hPa | 0V | 00:00:00 | 00:00:00 | 00:00:00 | |
| PU1XMG-16 | 2026-09-04 11:58:02 | -22.76473 | -43.04340 | 67° | 135km/h | 8241m | 4.1m/s | -22.6°C | 5.8% | 364.0hPa | 0V | 00:00:00 | 00:00:00 | 00:00:00 | |
| PU1XMG-16 | 2026-09-04 11:57:57 | -22.76544 | -43.04506 | 68° | 126km/h | 8221m | 3.6m/s | -22.4°C | 5.8% | 365.0hPa | 0V | 00:00:00 | 00:00:00 | 00:00:00 | |
| PU1XMG-16 | 2026-09-04 11:57:52 | -22.76608 | -43.04666 | 67° | 130km/h | 8196m | 5.5m/s | -22.2°C | 5.6% | 366.2hPa | 0V | 00:00:00 | 00:00:00 | 00:00:00 | |
| PU1XMG-16 | 2026-09-04 11:57:46 | -22.76689 | -43.04856 | 66° | 128km/h | 8162m | 5.7m/s | -21.9°C | 5.4% | 367.9hPa | 0V | 00:00:00 | 00:00:00 | 00:00:00 | |
| PU1XMG-16 | 2026-09-04 11:57:41 | -22.76752 | -43.05019 | 70° | 126km/h | 8140m | 3.8m/s | -21.7°C | 5.3% | 368.9hPa | 0V | 00:00:00 | 00:00:00 | 00:00:00 | |
| PU1XMG-16 | 2026-09-04 11:57:36 | -22.76814 | -43.05178 | 67° | 124km/h | 8117m | 6.6m/s | -21.5°C | 5.2% | 370.1hPa | 0V | 00:00:00 | 00:00:00 | 00:00:00 | |
| PU1XMG-16 | 2026-09-04 11:57:25 | -22.76962 | -43.05534 | 67° | 131km/h | 8069m | 5.1m/s | -21.0°C | 5.1% | 372.5hPa | 0V | 00:00:00 | 00:00:00 | 00:00:00 | |
| PU1XMG-16 | 2026-09-04 11:57:20 | -22.77027 | -43.05693 | 68° | 124km/h | 8046m | 5.9m/s | -20.8°C | 5.0% | 373.7hPa | 0V | 00:00:00 | 00:00:00 | 00:00:00 | |
| PU1XMG-16 | 2026-09-04 11:57:16 | -22.77089 | -43.05852 | 69° | 130km/h | 8017m | 2.7m/s | -20.6°C | 5.0% | 375.0hPa | 0V | 00:00:00 | 00:00:00 | 00:00:00 | |
| PU1XMG-16 | 2026-09-04 11:57:09 | -22.77172 | -43.06045 | 66° | 130km/h | 7989m | 5.9m/s | -20.4°C | 5.0% | 376.4hPa | 0V | 00:00:00 | 00:00:00 | 00:00:00 | |
| PU1XMG-16 | 2026-09-04 11:57:03 | -22.77252 | -43.06236 | 67° | 126km/h | 7963m | 5.0m/s | -20.3°C | 5.0% | 377.8hPa | 0V | 00:00:00 | 00:00:00 | 00:00:00 | |
| PU1XMG-16 | 2026-09-04 11:56:58 | -22.77322 | -43.06390 | 64° | 124km/h | 7937m | 6.2m/s | -20.1°C | 5.1% | 379.1hPa | 0V | 00:00:00 | 00:00:00 | 00:00:00 | |
| PU1XMG-16 | 2026-09-04 11:56:53 | -22.77400 | -43.06575 | 66° | 122km/h | 7911m | 3.5m/s | -20.0°C | 5.1% | 380.5hPa | 0V | 00:00:00 | 00:00:00 | 00:00:00 | |
| PU1XMG-16 | 2026-09-04 11:56:46 | -22.77493 | -43.06756 | 60° | 122km/h | 7884m | 4.6m/s | -19.9°C | 5.1% | 381.8hPa | 0V | 00:00:00 | 00:00:00 | 00:00:00 | |
| PU1XMG-16 | 2026-09-04 11:56:40 | -22.77582 | -43.06933 | 64° | 122km/h | 7857m | 4.3m/s | -19.7°C | 4.9% | 383.2hPa | 0V | 00:00:00 | 00:00:00 | 00:00:00 | |
| PU1XMG-16 | 2026-09-04 11:56:35 | -22.77655 | -43.07085 | 62° | 128km/h | 7835m | 5.9m/s | -19.6°C | 4.6% | 384.3hPa | 0V | 00:00:00 | 00:00:00 | 00:00:00 | |
| PU1XMG-16 | 2026-09-04 11:56:30 | -22.77750 | -43.07269 | 62° | 130km/h | 7802m | 7.3m/s | -19.3°C | 4.5% | 386.0hPa | 0V | 00:00:00 | 00:00:00 | 00:00:00 | |
| PU1XMG-16 | 2026-09-04 11:56:24 | -22.77823 | -43.07424 | 64° | 128km/h | 7773m | 7.0m/s | -19.1°C | 4.4% | 387.5hPa | 0V | 00:00:00 | 00:00:00 | 00:00:00 | |
| PU1XMG-16 | 2026-09-04 11:56:13 | -22.77986 | -43.07750 | 61° | 122km/h | 7716m | 7.4m/s | -18.7°C | 4.4% | 390.4hPa | 0V | 00:00:00 | 00:00:00 | 00:00:00 | |
| PU1XMG-16 | 2026-09-04 11:56:07 | -22.78073 | -43.07931 | 64° | 122km/h | 7685m | 5.3m/s | -18.6°C | 4.7% | 391.9hPa | 0V | 00:00:00 | 00:00:00 | 00:00:00 | |
| PU1XMG-16 | 2026-09-04 11:56:01 | -22.78161 | -43.08101 | 62° | 119km/h | 7657m | 4.0m/s | -18.5°C | 4.8% | 393.5hPa | 0V | 00:00:00 | 00:00:00 | 00:00:00 | |
| PU1XMG-16 | 2026-09-04 11:55:56 | -22.78239 | -43.08247 | 62° | 128km/h | 7631m | 4.7m/s | -18.7°C | 5.5% | 394.9hPa | 0V | 00:00:00 | 00:00:00 | 00:00:00 | |
| PU1XMG-16 | 2026-09-04 11:55:50 | -22.78336 | -43.08417 | 58° | 117km/h | 7598m | 7.0m/s | -18.9°C | 6.2% | 396.7hPa | 0V | 00:00:00 | 00:00:00 | 00:00:00 | |
| PU1XMG-16 | 2026-09-04 11:55:45 | -22.78414 | -43.08548 | 60° | 110km/h | 7564m | 5.6m/s | -19.0°C | 6.5% | 398.4hPa | 0V | 00:00:00 | 00:00:00 | 00:00:00 | |
| PU1XMG-16 | 2026-09-04 11:55:40 | -22.78501 | -43.08703 | 58° | 108km/h | 7533m | 5.8m/s | -19.1°C | 6.7% | 400.1hPa | 0V | 00:00:00 | 00:00:00 | 00:00:00 | |
| PU1XMG-16 | 2026-09-04 11:55:34 | -22.78566 | -43.08831 | 66° | 108km/h | 7505m | 6.0m/s | -19.6°C | 8.2% | 401.6hPa | 0V | 00:00:00 | 00:00:00 | 00:00:00 | |
| PU1XMG-16 | 2026-09-04 11:55:28 | -22.78644 | -43.08978 | 60° | 99km/h | 7474m | 7.2m/s | -20.0°C | 9.9% | 403.3hPa | 0V | 00:00:00 | 00:00:00 | 00:00:00 | |
| PU1XMG-16 | 2026-09-04 11:55:23 | -22.78707 | -43.09091 | 61° | 93km/h | 7448m | 3.8m/s | -20.0°C | 10.2% | 404.9hPa | 0V | 00:00:00 | 00:00:00 | 00:00:00 | |
| PU1XMG-16 | 2026-09-04 11:55:18 | -22.78765 | -43.09199 | 60° | 84km/h | 7423m | 3.7m/s | -19.8°C | 10.5% | 406.2hPa | 0V | 00:00:00 | 00:00:00 | 00:00:00 | |
| PU1XMG-16 | 2026-09-04 11:55:12 | -22.78832 | -43.09316 | 58° | 89km/h | 7394m | 7.0m/s | -19.9°C | 13.1% | 407.7hPa | 0V | 00:00:00 | 00:00:00 | 00:00:00 | |
| PU1XMG-16 | 2026-09-04 11:55:01 | -22.78958 | -43.09543 | 62° | 86km/h | 7336m | 8.5m/s | -20.1°C | 13.6% | 410.9hPa | 0V | 00:00:00 | 00:00:00 | 00:00:00 | |
| PU1XMG-16 | 2026-09-04 11:54:55 | -22.79018 | -43.09665 | 64° | 84km/h | 7305m | 4.6m/s | -19.9°C | 14.1% | 412.7hPa | 0V | 00:00:00 | 00:00:00 | 00:00:00 | |
| PU1XMG-16 | 2026-09-04 11:54:50 | -22.79068 | -43.09770 | 64° | 89km/h | 7283m | 4.9m/s | -19.8°C | 14.1% | 413.9hPa | 0V | 00:00:00 | 00:00:00 | 00:00:00 | |
| PU1XMG-16 | 2026-09-04 11:54:45 | -22.79117 | -43.09899 | 73° | 86km/h | 7254m | 4.3m/s | -19.7°C | 14.9% | 415.5hPa | 0V | 00:00:00 | 00:00:00 | 00:00:00 | |
| PU1XMG-16 | 2026-09-04 11:54:39 | -22.79151 | -43.10003 | 71° | 80km/h | 7234m | 6.2m/s | -19.7°C | 15.8% | 416.8hPa | 0V | 00:00:00 | 00:00:00 | 00:00:00 | |
| PU1XMG-16 | 2026-09-04 11:54:33 | -22.79203 | -43.10130 | 71° | 88km/h | 7199m | 8.1m/s | -19.6°C | 16.6% | 418.7hPa | 0V | 00:00:00 | 00:00:00 | 00:00:00 | |
| PU1XMG-16 | 2026-09-04 11:54:28 | -22.79235 | -43.10238 | 72° | 84km/h | 7160m | 7.9m/s | -19.3°C | 16.9% | 420.8hPa | 0V | 00:00:00 | 00:00:00 | 00:00:00 | |
| PU1XMG-16 | 2026-09-04 11:54:22 | -22.79275 | -43.10374 | 73° | 89km/h | 7126m | 5.3m/s | -19.2°C | 18.2% | 422.8hPa | 0V | 00:00:00 | 00:00:00 | 00:00:00 | |
| PU1XMG-16 | 2026-09-04 11:54:16 | -22.79315 | -43.10508 | 72° | 86km/h | 7096m | 5.8m/s | -19.1°C | 19.7% | 424.6hPa | 0V | 00:00:00 | 00:00:00 | 00:00:00 | |
| PU1XMG-16 | 2026-09-04 11:54:11 | -22.79351 | -43.10630 | 71° | 99km/h | 7070m | 7.4m/s | -19.2°C | 19.9% | 426.0hPa | 0V | 00:00:00 | 00:00:00 | 00:00:00 | |
| PU1XMG-16 | 2026-09-04 11:54:05 | -22.79392 | -43.10771 | 75° | 88km/h | 7034m | 6.1m/s | -19.0°C | 20.0% | 428.0hPa | 0V | 00:00:00 | 00:00:00 | 00:00:00 | |
| PU1XMG-16 | 2026-09-04 11:53:59 | -22.79424 | -43.10918 | 76° | 82km/h | 6994m | 6.8m/s | -18.7°C | 18.7% | 430.2hPa | 0V | 00:00:00 | 00:00:00 | 00:00:00 | |
| PU1XMG-16 | 2026-09-04 11:53:54 | -22.79451 | -43.11033 | 82° | 84km/h | 6957m | 7.9m/s | -18.3°C | 18.2% | 432.4hPa | 0V | 00:00:00 | 00:00:00 | 00:00:00 | |
| PU1XMG-16 | 2026-09-04 11:53:49 | -22.79467 | -43.11147 | 79° | 89km/h | 6927m | 6.1m/s | -18.1°C | 18.2% | 434.2hPa | 0V | 00:00:00 | 00:00:00 | 00:00:00 | |
| PU1XMG-16 | 2026-09-04 11:53:43 | -22.79494 | -43.11287 | 79° | 89km/h | 6892m | 4.0m/s | -17.8°C | 19.2% | 436.3hPa | 0V | 00:00:00 | 00:00:00 | 00:00:00 | |
| PU1XMG-16 | 2026-09-04 11:53:38 | -22.79513 | -43.11431 | 82° | 89km/h | 6862m | 3.1m/s | -17.6°C | 21.0% | 438.1hPa | 0V | 00:00:00 | 00:00:00 | 00:00:00 | |
| PU1XMG-16 | 2026-09-04 11:53:31 | -22.79538 | -43.11580 | 80° | 95km/h | 6828m | 4.3m/s | -17.4°C | 20.7% | 439.9hPa | 0V | 00:00:00 | 00:00:00 | 00:00:00 | |
| PU1XMG-16 | 2026-09-04 11:53:26 | -22.79557 | -43.11704 | 78° | 86km/h | 6805m | 6.8m/s | -17.3°C | 20.6% | 441.3hPa | 0V | 00:00:00 | 00:00:00 | 00:00:00 | |
| PU1XMG-16 | 2026-09-04 11:53:20 | -22.79594 | -43.11834 | 76° | 93km/h | 6779m | 4.8m/s | -17.0°C | 20.5% | 442.9hPa | 0V | 00:00:00 | 00:00:00 | 00:00:00 | |
| PU1XMG-16 | 2026-09-04 11:53:15 | -22.79608 | -43.11959 | 90° | 80km/h | 6748m | 4.7m/s | -16.8°C | 20.5% | 444.8hPa | 0V | 00:00:00 | 00:00:00 | 00:00:00 | |
| PU1XMG-16 | 2026-09-04 11:53:10 | -22.79621 | -43.12070 | 80° | 84km/h | 6714m | 8.1m/s | -16.6°C | 20.0% | 446.7hPa | 0V | 00:00:00 | 00:00:00 | 00:00:00 | |
| PU1XMG-16 | 2026-09-04 11:53:04 | -22.79645 | -43.12202 | 79° | 80km/h | 6678m | 5.4m/s | -16.2°C | 19.5% | 448.7hPa | 0V | 00:00:00 | 00:00:00 | 00:00:00 | |
| PU1XMG-16 | 2026-09-04 11:52:58 | -22.79669 | -43.12339 | 82° | 84km/h | 6648m | 4.8m/s | -16.0°C | 18.7% | 450.5hPa | 0V | 00:00:00 | 00:00:00 | 00:00:00 | |
| PU1XMG-16 | 2026-09-04 11:52:53 | -22.79682 | -43.12447 | 81° | 73km/h | 6621m | 6.4m/s | -15.7°C | 18.0% | 452.1hPa | 0V | 00:00:00 | 00:00:00 | 00:00:00 | |
| PU1XMG-16 | 2026-09-04 11:52:47 | -22.79708 | -43.12570 | 73° | 82km/h | 6588m | 6.0m/s | -15.6°C | 19.7% | 454.0hPa | 0V | 00:00:00 | 00:00:00 | 00:00:00 | |
| PU1XMG-16 | 2026-09-04 11:52:42 | -22.79736 | -43.12683 | 84° | 84km/h | 6559m | 5.7m/s | -15.4°C | 19.5% | 455.8hPa | 0V | 00:00:00 | 00:00:00 | 00:00:00 | |
| PU1XMG-16 | 2026-09-04 11:52:36 | -22.79754 | -43.12820 | 80° | 78km/h | 6521m | 6.8m/s | -15.1°C | 19.0% | 458.1hPa | 0V | 00:00:00 | 00:00:00 | 00:00:00 | |
| PU1XMG-16 | 2026-09-04 11:52:32 | -22.79773 | -43.12923 | 81° | 80km/h | 6495m | 3.9m/s | -14.9°C | 18.9% | 459.6hPa | 0V | 00:00:00 | 00:00:00 | 00:00:00 | |
| PU1XMG-16 | 2026-09-04 11:52:25 | -22.79792 | -43.13053 | 84° | 75km/h | 6466m | 4.0m/s | -14.6°C | 19.2% | 461.4hPa | 0V | 00:00:00 | 00:00:00 | 00:00:00 | |
| PU1XMG-16 | 2026-09-04 11:52:20 | -22.79803 | -43.13151 | 80° | 75km/h | 6443m | 5.0m/s | -14.5°C | 19.0% | 462.9hPa | 0V | 00:00:00 | 00:00:00 | 00:00:00 | |
| PU1XMG-16 | 2026-09-04 11:52:15 | -22.79823 | -43.13257 | 80° | 78km/h | 6419m | 6.6m/s | -14.3°C | 18.7% | 464.3hPa | 0V | 00:00:00 | 00:00:00 | 00:00:00 | |
| PU1XMG-16 | 2026-09-04 11:52:10 | -22.79838 | -43.13366 | 82° | 78km/h | 6395m | 4.6m/s | -14.1°C | 18.3% | 465.8hPa | 0V | 00:00:00 | 00:00:00 | 00:00:00 | |
| PU1XMG-16 | 2026-09-04 11:52:05 | -22.79856 | -43.13472 | 83° | 78km/h | 6371m | 4.3m/s | -14.0°C | 18.6% | 467.2hPa | 0V | 00:00:00 | 00:00:00 | 00:00:00 | |
| PU1XMG-16 | 2026-09-04 11:51:59 | -22.79863 | -43.13602 | 86° | 73km/h | 6341m | 3.6m/s | -13.7°C | 18.3% | 469.0hPa | 0V | 00:00:00 | 00:00:00 | 00:00:00 | |
| PU1XMG-16 | 2026-09-04 11:51:54 | -22.79882 | -43.13689 | 79° | 66km/h | 6311m | 8.7m/s | -13.6°C | 20.2% | 470.9hPa | 0V | 00:00:00 | 00:00:00 | 00:00:00 | |
| PU1XMG-16 | 2026-09-04 11:51:49 | -22.79901 | -43.13797 | 78° | 86km/h | 6278m | 6.8m/s | -13.5°C | 22.5% | 472.8hPa | 0V | 00:00:00 | 00:00:00 | 00:00:00 | |
| PU1XMG-16 | 2026-09-04 11:51:43 | -22.79924 | -43.13931 | 76° | 75km/h | 6240m | 5.6m/s | -13.5°C | 26.1% | 475.2hPa | 0V | 00:00:00 | 00:00:00 | 00:00:00 | |
| PU1XMG-16 | 2026-09-04 11:51:38 | -22.79949 | -43.14021 | 78° | 71km/h | 6206m | 5.9m/s | -13.5°C | 27.2% | 477.5hPa | 0V | 00:00:00 | 00:00:00 | 00:00:00 | |
| PU1XMG-16 | 2026-09-04 11:51:32 | -22.79973 | -43.14134 | 75° | 69km/h | 6176m | 5.9m/s | -13.3°C | 28.0% | 479.4hPa | 0V | 00:00:00 | 00:00:00 | 00:00:00 | |
| PU1XMG-16 | 2026-09-04 11:51:28 | -22.80000 | -43.14219 | 75° | 58km/h | 6150m | 6.3m/s | -13.1°C | 28.6% | 481.1hPa | 0V | 00:00:00 | 00:00:00 | 00:00:00 | |
| PU1XMG-16 | 2026-09-04 11:51:21 | -22.80013 | -43.14319 | 81° | 69km/h | 6124m | 4.3m/s | -12.9°C | 28.6% | 482.8hPa | 0V | 00:00:00 | 00:00:00 | 00:00:00 | |
| PU1XMG-16 | 2026-09-04 11:51:16 | -22.80038 | -43.14403 | 74° | 57km/h | 6095m | 6.3m/s | -12.6°C | 28.3% | 484.8hPa | 0V | 00:00:00 | 00:00:00 | 00:00:00 | |
| PU1XMG-16 | 2026-09-04 11:51:11 | -22.80064 | -43.14505 | 74° | 66km/h | 6056m | 4.5m/s | -12.2°C | 27.8% | 487.0hPa | 0V | 00:00:00 | 00:00:00 | 00:00:00 | |
| PU1XMG-16 | 2026-09-04 11:51:06 | -22.80086 | -43.14594 | 78° | 69km/h | 6030m | 6.2m/s | -12.0°C | 27.3% | 488.7hPa | 0V | 00:00:00 | 00:00:00 | 00:00:00 | |
| PU1XMG-16 | 2026-09-04 11:50:57 | -22.80110 | -43.14726 | 81° | 57km/h | 5995m | 6.4m/s | -11.6°C | 26.8% | 490.9hPa | 0V | 00:00:00 | 00:00:00 | 00:00:00 | |
| PU1XMG-16 | 2026-09-04 11:50:52 | -22.80131 | -43.14807 | 73° | 64km/h | 5970m | 6.2m/s | -11.4°C | 26.6% | 492.5hPa | 0V | 00:00:00 | 00:00:00 | 00:00:00 | |
| PU1XMG-16 | 2026-09-04 11:50:46 | -22.80159 | -43.14906 | 82° | 62km/h | 5938m | 4.7m/s | -11.1°C | 26.4% | 494.5hPa | 0V | 00:00:00 | 00:00:00 | 00:00:00 | |
| PU1XMG-16 | 2026-09-04 11:50:40 | -22.80171 | -43.15012 | 78° | 58km/h | 5910m | 6.0m/s | -10.8°C | 26.3% | 496.4hPa | 0V | 00:00:00 | 00:00:00 | 00:00:00 | |
| PU1XMG-16 | 2026-09-04 11:50:34 | -22.80201 | -43.15117 | 86° | 75km/h | 5872m | 5.3m/s | -10.5°C | 25.8% | 498.8hPa | 0V | 00:00:00 | 00:00:00 | 00:00:00 | |
| PU1XMG-16 | 2026-09-04 11:50:28 | -22.80217 | -43.15223 | 69° | 55km/h | 5829m | 7.3m/s | -10.1°C | 25.0% | 501.7hPa | 0V | 00:00:00 | 00:00:00 | 00:00:00 | |
| PU1XMG-16 | 2026-09-04 11:50:23 | -22.80246 | -43.15319 | 78° | 62km/h | 5798m | 5.2m/s | -9.7°C | 24.8% | 503.7hPa | 0V | 00:00:00 | 00:00:00 | 00:00:00 | |
| PU1XMG-16 | 2026-09-04 11:50:17 | -22.80258 | -43.15395 | 89° | 62km/h | 5771m | 4.4m/s | -9.5°C | 24.3% | 505.5hPa | 0V | 00:00:00 | 00:00:00 | 00:00:00 | |
| PU1XMG-16 | 2026-09-04 11:50:12 | -22.80275 | -43.15475 | 62° | 62km/h | 5739m | 6.9m/s | -9.2°C | 23.7% | 507.4hPa | 0V | 00:00:00 | 00:00:00 | 00:00:00 | |
| PU1XMG-16 | 2026-09-04 11:50:06 | -22.80309 | -43.15569 | 78° | 55km/h | 5702m | 7.4m/s | -8.9°C | 23.2% | 509.9hPa | 0V | 00:00:00 | 00:00:00 | 00:00:00 | |
| PU1XMG-16 | 2026-09-04 11:50:01 | -22.80333 | -43.15644 | 71° | 64km/h | 5668m | 7.1m/s | -8.6°C | 22.6% | 512.2hPa | 0V | 00:00:00 | 00:00:00 | 00:00:00 | |
| PU1XMG-16 | 2026-09-04 11:49:56 | -22.80351 | -43.15736 | 81° | 62km/h | 5641m | 5.6m/s | -8.3°C | 22.9% | 513.8hPa | 0V | 00:00:00 | 00:00:00 | 00:00:00 | |
| PU1XMG-16 | 2026-09-04 11:49:50 | -22.80375 | -43.15819 | 71° | 60km/h | 5605m | 7.0m/s | -8.0°C | 21.6% | 516.2hPa | 0V | 00:00:00 | 00:00:00 | 00:00:00 | |
| PU1XMG-16 | 2026-09-04 11:49:44 | -22.80402 | -43.15910 | 71° | 51km/h | 5573m | 5.2m/s | -7.7°C | 19.7% | 518.5hPa | 0V | 00:00:00 | 00:00:00 | 00:00:00 | |
| PU1XMG-16 | 2026-09-04 11:49:39 | -22.80423 | -43.15982 | 77° | 60km/h | 5546m | 4.7m/s | -7.5°C | 19.0% | 520.2hPa | 0V | 00:00:00 | 00:00:00 | 00:00:00 | |
| PU1XMG-16 | 2026-09-04 11:49:34 | -22.80437 | -43.16071 | 78° | 66km/h | 5524m | 4.7m/s | -7.3°C | 18.5% | 521.6hPa | 0V | 00:00:00 | 00:00:00 | 00:00:00 | |
| PU1XMG-16 | 2026-09-04 11:49:29 | -22.80464 | -43.16151 | 71° | 64km/h | 5492m | 7.3m/s | -7.1°C | 18.7% | 523.7hPa | 0V | 00:00:00 | 00:00:00 | 00:00:00 | |
| PU1XMG-16 | 2026-09-04 11:49:23 | -22.80497 | -43.16247 | 64° | 60km/h | 5459m | 6.4m/s | -7.0°C | 18.3% | 525.9hPa | 0V | 00:00:00 | 00:00:00 | 00:00:00 | |
| PU1XMG-16 | 2026-09-04 11:49:18 | -22.80519 | -43.16319 | 79° | 51km/h | 5432m | 7.1m/s | -6.9°C | 17.9% | 527.8hPa | 0V | 00:00:00 | 00:00:00 | 00:00:00 | |
| PU1XMG-16 | 2026-09-04 11:49:12 | -22.80532 | -43.16405 | 73° | 46km/h | 5398m | 5.4m/s | -6.6°C | 15.8% | 530.0hPa | 0V | 00:00:00 | 00:00:00 | 00:00:00 | |
| PU1XMG-16 | 2026-09-04 11:49:06 | -22.80553 | -43.16484 | 79° | 49km/h | 5364m | 7.7m/s | -6.3°C | 17.5% | 532.5hPa | 0V | 00:00:00 | 00:00:00 | 00:00:00 | |
| PU1XMG-16 | 2026-09-04 11:49:01 | -22.80580 | -43.16548 | 65° | 47km/h | 5333m | 8.5m/s | -6.1°C | 16.8% | 534.6hPa | 0V | 00:00:00 | 00:00:00 | 00:00:00 | |
| PU1XMG-16 | 2026-09-04 11:48:57 | -22.80593 | -43.16607 | 77° | 49km/h | 5301m | 6.7m/s | -5.9°C | 15.0% | 536.8hPa | 0V | 00:00:00 | 00:00:00 | 00:00:00 | |
| PU1XMG-16 | 2026-09-04 11:48:51 | -22.80621 | -43.16690 | 81° | 58km/h | 5265m | 4.0m/s | -5.6°C | 13.1% | 539.2hPa | 0V | 00:00:00 | 00:00:00 | 00:00:00 | |
| PU1XMG-16 | 2026-09-04 11:48:45 | -22.80634 | -43.16771 | 78° | 51km/h | 5234m | 5.8m/s | -5.5°C | 12.9% | 541.3hPa | 0V | 00:00:00 | 00:00:00 | 00:00:00 | |
| PU1XMG-16 | 2026-09-04 11:48:39 | -22.80647 | -43.16857 | 78° | 62km/h | 5197m | 4.5m/s | -5.3°C | 12.8% | 543.8hPa | 0V | 00:00:00 | 00:00:00 | 00:00:00 | |
| PU1XMG-16 | 2026-09-04 11:48:34 | -22.80668 | -43.16942 | 71° | 66km/h | 5171m | 5.8m/s | -5.1°C | 12.7% | 545.6hPa | 0V | 00:00:00 | 00:00:00 | 00:00:00 | |
| PU1XMG-16 | 2026-09-04 11:48:29 | -22.80694 | -43.17017 | 83° | 57km/h | 5142m | 6.9m/s | -4.9°C | 12.5% | 547.6hPa | 0V | 00:00:00 | 00:00:00 | 00:00:00 | |
| PU1XMG-16 | 2026-09-04 11:48:23 | -22.80716 | -43.17103 | 75° | 55km/h | 5098m | 9.8m/s | -4.5°C | 12.3% | 550.5hPa | 0V | 00:00:00 | 00:00:00 | 00:00:00 | |
| PU1XMG-16 | 2026-09-04 11:48:17 | -22.80738 | -43.17188 | 77° | 58km/h | 5062m | 3.7m/s | -4.2°C | 12.3% | 553.1hPa | 0V | 00:00:00 | 00:00:00 | 00:00:00 | |
| PU1XMG-16 | 2026-09-04 11:48:11 | -22.80768 | -43.17282 | 65° | 64km/h | 5033m | 3.5m/s | -4.1°C | 12.6% | 555.0hPa | 0V | 00:00:00 | 00:00:00 | 00:00:00 | |
| PU1XMG-16 | 2026-09-04 11:48:06 | -22.80803 | -43.17355 | 73° | 55km/h | 5012m | 5.3m/s | -4.0°C | 13.2% | 556.5hPa | 0V | 00:00:00 | 00:00:00 | 00:00:00 | |
| PU1XMG-16 | 2026-09-04 11:48:00 | -22.80822 | -43.17444 | 71° | 53km/h | 4981m | 5.7m/s | -3.8°C | 13.3% | 558.9hPa | 0V | 00:00:00 | 00:00:00 | 00:00:00 | |
| PU1XMG-16 | 2026-09-04 11:47:55 | -22.80841 | -43.17515 | 75° | 58km/h | 4956m | 4.2m/s | -3.6°C | 13.1% | 560.6hPa | 0V | 00:00:00 | 00:00:00 | 00:00:00 | |
| PU1XMG-16 | 2026-09-04 11:47:49 | -22.80869 | -43.17595 | 75° | 51km/h | 4923m | 4.6m/s | -3.4°C | 13.9% | 563.1hPa | 0V | 00:00:00 | 00:00:00 | 00:00:00 | |
| PU1XMG-16 | 2026-09-04 11:47:44 | -22.80890 | -43.17669 | 67° | 66km/h | 4898m | 5.4m/s | -3.2°C | 14.3% | 564.7hPa | 0V | 00:00:00 | 00:00:00 | 00:00:00 | |
| PU1XMG-16 | 2026-09-04 11:47:38 | -22.80927 | -43.17767 | 71° | 55km/h | 4863m | 5.6m/s | -2.9°C | 14.0% | 567.3hPa | 0V | 00:00:00 | 00:00:00 | 00:00:00 | |
| PU1XMG-16 | 2026-09-04 11:47:33 | -22.80960 | -43.17842 | 65° | 64km/h | 4838m | 4.6m/s | -2.7°C | 13.7% | 569.1hPa | 0V | 00:00:00 | 00:00:00 | 00:00:00 | |
| PU1XMG-16 | 2026-09-04 11:47:27 | -22.80991 | -43.17927 | 63° | 60km/h | 4807m | 5.5m/s | -2.5°C | 13.6% | 571.3hPa | 0V | 00:00:00 | 00:00:00 | 00:00:00 | |
| PU1XMG-16 | 2026-09-04 11:47:22 | -22.81030 | -43.18005 | 72° | 66km/h | 4784m | 4.5m/s | -2.3°C | 14.3% | 573.0hPa | 0V | 00:00:00 | 00:00:00 | 00:00:00 | |
| PU1XMG-16 | 2026-09-04 11:47:17 | -22.81047 | -43.18078 | 70° | 53km/h | 4756m | 6.5m/s | -2.1°C | 14.1% | 575.0hPa | 0V | 00:00:00 | 00:00:00 | 00:00:00 | |
| PU1XMG-16 | 2026-09-04 11:47:12 | -22.81078 | -43.18145 | 70° | 47km/h | 4727m | 4.8m/s | -1.8°C | 14.1% | 577.1hPa | 0V | 00:00:00 | 00:00:00 | 00:00:00 | |
| PU1XMG-16 | 2026-09-04 11:47:06 | -22.81107 | -43.18238 | 62° | 64km/h | 4692m | 4.3m/s | -1.6°C | 14.0% | 579.7hPa | 0V | 00:00:00 | 00:00:00 | 00:00:00 | |
| PU1XMG-16 | 2026-09-04 11:47:00 | -22.81135 | -43.18327 | 78° | 53km/h | 4653m | 5.9m/s | -1.3°C | 14.3% | 582.5hPa | 0V | 00:00:00 | 00:00:00 | 00:00:00 | |
| PU1XMG-16 | 2026-09-04 11:46:55 | -22.81146 | -43.18387 | 85° | 47km/h | 4630m | 4.2m/s | -1.1°C | 14.2% | 584.2hPa | 0V | 00:00:00 | 00:00:00 | 00:00:00 | |
| PU1XMG-16 | 2026-09-04 11:46:50 | -22.81163 | -43.18462 | 68° | 60km/h | 4605m | 3.8m/s | -0.9°C | 14.0% | 586.0hPa | 0V | 00:00:00 | 00:00:00 | 00:00:00 | |
| PU1XMG-16 | 2026-09-04 11:46:44 | -22.81187 | -43.18536 | 68° | 49km/h | 4570m | 3.8m/s | -0.6°C | 13.5% | 588.6hPa | 0V | 00:00:00 | 00:00:00 | 00:00:00 | |
| PU1XMG-16 | 2026-09-04 11:46:38 | -22.81220 | -43.18627 | 80° | 58km/h | 4541m | 4.3m/s | -0.3°C | 13.4% | 590.9hPa | 0V | 00:00:00 | 00:00:00 | 00:00:00 | |
| PU1XMG-16 | 2026-09-04 11:46:34 | -22.81234 | -43.18697 | 78° | 55km/h | 4506m | 9.2m/s | -0.1°C | 13.4% | 593.3hPa | 0V | 00:00:00 | 00:00:00 | 00:00:00 | |
| PU1XMG-16 | 2026-09-04 11:46:28 | -22.81250 | -43.18795 | 73° | 55km/h | 4466m | 6.5m/s | 0.2°C | 13.9% | 596.4hPa | 0V | 00:00:00 | 00:00:00 | 00:00:00 | |
| PU1XMG-16 | 2026-09-04 11:46:22 | -22.81267 | -43.18870 | 93° | 60km/h | 4440m | 4.9m/s | 0.4°C | 14.0% | 598.3hPa | 0V | 00:00:00 | 00:00:00 | 00:00:00 | |
| PU1XMG-16 | 2026-09-04 11:46:17 | -22.81261 | -43.18947 | 96° | 55km/h | 4414m | 6.6m/s | 0.4°C | 14.9% | 600.3hPa | 0V | 00:00:00 | 00:00:00 | 00:00:00 | |
| PU1XMG-16 | 2026-09-04 11:46:13 | -22.81267 | -43.19012 | 73° | 47km/h | 4389m | 6.1m/s | 0.6°C | 15.1% | 602.2hPa | 0V | 00:00:00 | 00:00:00 | 00:00:00 | |
| PU1XMG-16 | 2026-09-04 11:46:07 | -22.81282 | -43.19085 | 81° | 55km/h | 4360m | 9.3m/s | 0.7°C | 16.1% | 604.2hPa | 0V | 00:00:00 | 00:00:00 | 00:00:00 | |
| PU1XMG-16 | 2026-09-04 11:46:01 | -22.81294 | -43.19175 | 72° | 55km/h | 4324m | 5.7m/s | 0.8°C | 17.4% | 606.9hPa | 0V | 00:00:00 | 00:00:00 | 00:00:00 | |
| PU1XMG-16 | 2026-09-04 11:45:57 | -22.81306 | -43.19242 | 86° | 55km/h | 4295m | 6.7m/s | 1.0°C | 14.5% | 609.1hPa | 0V | 00:00:00 | 00:00:00 | 00:00:00 | |
| PU1XMG-16 | 2026-09-04 11:45:50 | -22.81310 | -43.19323 | 93° | 53km/h | 4260m | 5.6m/s | 1.2°C | 13.2% | 611.6hPa | 0V | 00:00:00 | 00:00:00 | 00:00:00 | |
| PU1XMG-16 | 2026-09-04 11:45:44 | -22.81327 | -43.19406 | 71° | 42km/h | 4228m | 4.5m/s | 1.5°C | 12.2% | 614.1hPa | 0V | 00:00:00 | 00:00:00 | 00:00:00 | |
| PU1XMG-16 | 2026-09-04 11:45:39 | -22.81338 | -43.19468 | 97° | 47km/h | 4200m | 4.0m/s | 1.5°C | 11.6% | 616.2hPa | 0V | 00:00:00 | 00:00:00 | 00:00:00 | |
| PU1XMG-16 | 2026-09-04 11:45:34 | -22.81340 | -43.19523 | 71° | 40km/h | 4172m | 8.0m/s | 1.6°C | 12.5% | 618.2hPa | 0V | 00:00:00 | 00:00:00 | 00:00:00 | |
| PU1XMG-16 | 2026-09-04 11:45:29 | -22.81343 | -43.19589 | 104° | 51km/h | 4144m | 7.1m/s | 1.7°C | 13.8% | 620.4hPa | 0V | 00:00:00 | 00:00:00 | 00:00:00 | |
| PU1XMG-16 | 2026-09-04 11:45:25 | -22.81334 | -43.19672 | 94° | 49km/h | 4114m | 4.6m/s | 1.7°C | 0% | 0hPa | 0V | 00:00:00 | 00:00:00 | 00:00:00 | |
| PU1XMG-16 | 2026-09-04 11:45:17 | -22.81327 | -43.19731 | 76° | 38km/h | 4082m | 5.2m/s | 1.9°C | 0% | 0hPa | 0V | 00:00:00 | 00:00:00 | 00:00:00 | |
| PU1XMG-16 | 2026-09-04 11:45:11 | -22.81340 | -43.19790 | 100° | 35km/h | 4049m | 4.2m/s | 2.2°C | 0% | 0hPa | 0V | 00:00:00 | 00:00:00 | 00:00:00 | |
| PU1XMG-16 | 2026-09-04 11:45:06 | -22.81332 | -43.19848 | 99° | 49km/h | 4022m | 8.7m/s | 2.4°C | 0% | 0hPa | 0V | 00:00:00 | 00:00:00 | 00:00:00 | |
| PU1XMG-16 | 2026-09-04 11:45:00 | -22.81323 | -43.19921 | 79° | 46km/h | 3982m | 5.7m/s | 2.7°C | 0% | 0hPa | 0V | 00:00:00 | 00:00:00 | 00:00:00 | |
| PU1XMG-16 | 2026-09-04 11:44:54 | -22.81331 | -43.19982 | 107° | 40km/h | 3946m | 7.1m/s | 3.0°C | 0% | 0hPa | 0V | 00:00:00 | 00:00:00 | 00:00:00 | |
| PU1XMG-16 | 2026-09-04 11:44:49 | -22.81320 | -43.20035 | 96° | 31km/h | 3918m | 6.2m/s | 0°C | 0% | 0hPa | 0V | 00:00:00 | 00:00:00 | 00:00:00 | |
| PU1XMG-16 | 2026-09-04 11:44:43 | -22.81316 | -43.20103 | 99° | 53km/h | 3885m | 6.5m/s | 0°C | 0% | 0hPa | 0V | 00:00:00 | 00:00:00 | 00:00:00 | |
| PU1XMG-16 | 2026-09-04 11:44:38 | -22.81324 | -43.20169 | 86° | 33km/h | 3856m | 6.0m/s | 0°C | 0% | 0hPa | 0V | 00:00:00 | 00:00:00 | 00:00:00 | |
| PU1XMG-16 | 2026-09-04 11:43:47 | -22.81314 | -43.20711 | 119° | 35km/h | 3559m | 6.5m/s | 6.4°C | 13.9% | 666.7hPa | 0V | 00:00:00 | 00:00:00 | 00:00:00 | |
| PU1XMG-16 | 2026-09-04 11:43:43 | -22.81303 | -43.20757 | 80° | 31km/h | 3527m | 5.1m/s | 6.6°C | 14.0% | 669.2hPa | 0V | 00:00:00 | 00:00:00 | 00:00:00 |